<?xml version="1.0" encoding="UTF-8" standalone="no" ?>
<gpx xmlns="http://www.topografix.com/GPX/1/1" xmlns:xsi="http://www.w3.org/2001/XMLSchema-instance" xsi:schemaLocation="http://www.topografix.com/GPX/1/1 http://www.topografix.com/GPX/1/1/gpx.xsd" version="1.1" creator="VisuGPX - https://www.visugpx.com">
  <metadata>
    <name>Les Gorges du Bès</name>
    <desc><![CDATA[Lozère entre Aubrac et Margeride Haut Pays de Fournels]]></desc>
  </metadata>
  <trk>
    <name><![CDATA[8586485-Les Gorges du Bès]]></name>
    <trkseg>
      <trkpt lat="44.82582" lon="3.08515">
        <ele>923</ele>
        <time>2018-04-27T07:53:54Z</time>
      </trkpt>
      <trkpt lat="44.82582" lon="3.08523">
        <ele>923</ele>
        <time>2018-04-27T07:54:54Z</time>
      </trkpt>
      <trkpt lat="44.82579" lon="3.08548">
        <ele>923</ele>
        <time>2018-04-27T07:55:54Z</time>
      </trkpt>
      <trkpt lat="44.82571" lon="3.08576">
        <ele>925</ele>
        <time>2018-04-27T07:56:54Z</time>
      </trkpt>
      <trkpt lat="44.82571" lon="3.08576">
        <ele>925</ele>
        <time>2018-04-27T07:57:54Z</time>
      </trkpt>
      <trkpt lat="44.82562" lon="3.08542">
        <ele>927</ele>
        <time>2018-04-27T07:58:54Z</time>
      </trkpt>
      <trkpt lat="44.82553" lon="3.08519">
        <ele>929</ele>
        <time>2018-04-27T07:59:54Z</time>
      </trkpt>
      <trkpt lat="44.82548" lon="3.08492">
        <ele>929</ele>
        <time>2018-04-27T08:00:54Z</time>
      </trkpt>
      <trkpt lat="44.82545" lon="3.08486">
        <ele>930</ele>
        <time>2018-04-27T08:01:54Z</time>
      </trkpt>
      <trkpt lat="44.82527" lon="3.08481">
        <ele>932</ele>
        <time>2018-04-27T08:02:54Z</time>
      </trkpt>
      <trkpt lat="44.82527" lon="3.08481">
        <ele>932</ele>
        <time>2018-04-27T08:03:54Z</time>
      </trkpt>
      <trkpt lat="44.82526" lon="3.08481">
        <ele>933</ele>
        <time>2018-04-27T08:04:54Z</time>
      </trkpt>
      <trkpt lat="44.82537" lon="3.08551">
        <ele>934</ele>
        <time>2018-04-27T08:05:54Z</time>
      </trkpt>
      <trkpt lat="44.82537" lon="3.08575">
        <ele>934</ele>
        <time>2018-04-27T08:06:54Z</time>
      </trkpt>
      <trkpt lat="44.82517" lon="3.08647">
        <ele>938</ele>
        <time>2018-04-27T08:07:54Z</time>
      </trkpt>
      <trkpt lat="44.82508" lon="3.08666">
        <ele>939</ele>
        <time>2018-04-27T08:08:54Z</time>
      </trkpt>
      <trkpt lat="44.8249" lon="3.08687">
        <ele>943</ele>
        <time>2018-04-27T08:09:54Z</time>
      </trkpt>
      <trkpt lat="44.82485" lon="3.08697">
        <ele>944</ele>
        <time>2018-04-27T08:10:54Z</time>
      </trkpt>
      <trkpt lat="44.82481" lon="3.08711">
        <ele>944</ele>
        <time>2018-04-27T08:11:54Z</time>
      </trkpt>
      <trkpt lat="44.82479" lon="3.08725">
        <ele>945</ele>
        <time>2018-04-27T08:12:54Z</time>
      </trkpt>
      <trkpt lat="44.82482" lon="3.08777">
        <ele>946</ele>
        <time>2018-04-27T08:13:54Z</time>
      </trkpt>
      <trkpt lat="44.82476" lon="3.0882">
        <ele>949</ele>
        <time>2018-04-27T08:14:54Z</time>
      </trkpt>
      <trkpt lat="44.82458" lon="3.08856">
        <ele>948</ele>
        <time>2018-04-27T08:15:54Z</time>
      </trkpt>
      <trkpt lat="44.82431" lon="3.08891">
        <ele>945</ele>
        <time>2018-04-27T08:16:54Z</time>
      </trkpt>
      <trkpt lat="44.82414" lon="3.08937">
        <ele>943</ele>
        <time>2018-04-27T08:17:54Z</time>
      </trkpt>
      <trkpt lat="44.82404" lon="3.08975">
        <ele>944</ele>
        <time>2018-04-27T08:18:54Z</time>
      </trkpt>
      <trkpt lat="44.82403" lon="3.08997">
        <ele>944</ele>
        <time>2018-04-27T08:19:54Z</time>
      </trkpt>
      <trkpt lat="44.82406" lon="3.09071">
        <ele>951</ele>
        <time>2018-04-27T08:20:54Z</time>
      </trkpt>
      <trkpt lat="44.82401" lon="3.09125">
        <ele>956</ele>
        <time>2018-04-27T08:21:54Z</time>
      </trkpt>
      <trkpt lat="44.82369" lon="3.0922">
        <ele>962</ele>
        <time>2018-04-27T08:22:54Z</time>
      </trkpt>
      <trkpt lat="44.8237" lon="3.0922">
        <ele>962</ele>
        <time>2018-04-27T08:23:54Z</time>
      </trkpt>
      <trkpt lat="44.8237" lon="3.0922">
        <ele>962</ele>
        <time>2018-04-27T08:24:54Z</time>
      </trkpt>
      <trkpt lat="44.82414" lon="3.0921">
        <ele>960</ele>
        <time>2018-04-27T08:25:54Z</time>
      </trkpt>
      <trkpt lat="44.82422" lon="3.09206">
        <ele>959</ele>
        <time>2018-04-27T08:26:54Z</time>
      </trkpt>
      <trkpt lat="44.82429" lon="3.09195">
        <ele>959</ele>
        <time>2018-04-27T08:27:54Z</time>
      </trkpt>
      <trkpt lat="44.82431" lon="3.0919">
        <ele>959</ele>
        <time>2018-04-27T08:28:54Z</time>
      </trkpt>
      <trkpt lat="44.82448" lon="3.09199">
        <ele>959</ele>
        <time>2018-04-27T08:29:54Z</time>
      </trkpt>
      <trkpt lat="44.82448" lon="3.09199">
        <ele>959</ele>
        <time>2018-04-27T08:30:54Z</time>
      </trkpt>
      <trkpt lat="44.8248" lon="3.09221">
        <ele>958</ele>
        <time>2018-04-27T08:31:54Z</time>
      </trkpt>
      <trkpt lat="44.82495" lon="3.09246">
        <ele>959</ele>
        <time>2018-04-27T08:32:54Z</time>
      </trkpt>
      <trkpt lat="44.82509" lon="3.09274">
        <ele>960</ele>
        <time>2018-04-27T08:33:54Z</time>
      </trkpt>
      <trkpt lat="44.82529" lon="3.09336">
        <ele>963</ele>
        <time>2018-04-27T08:34:54Z</time>
      </trkpt>
      <trkpt lat="44.82536" lon="3.09391">
        <ele>961</ele>
        <time>2018-04-27T08:35:54Z</time>
      </trkpt>
      <trkpt lat="44.82536" lon="3.09416">
        <ele>960</ele>
        <time>2018-04-27T08:36:54Z</time>
      </trkpt>
      <trkpt lat="44.82532" lon="3.09461">
        <ele>961</ele>
        <time>2018-04-27T08:37:54Z</time>
      </trkpt>
      <trkpt lat="44.82522" lon="3.09508">
        <ele>962</ele>
        <time>2018-04-27T08:38:54Z</time>
      </trkpt>
      <trkpt lat="44.82519" lon="3.09537">
        <ele>962</ele>
        <time>2018-04-27T08:39:54Z</time>
      </trkpt>
      <trkpt lat="44.82521" lon="3.09576">
        <ele>961</ele>
        <time>2018-04-27T08:40:54Z</time>
      </trkpt>
      <trkpt lat="44.82521" lon="3.09576">
        <ele>961</ele>
        <time>2018-04-27T08:41:54Z</time>
      </trkpt>
      <trkpt lat="44.82521" lon="3.09583">
        <ele>961</ele>
        <time>2018-04-27T08:42:54Z</time>
      </trkpt>
      <trkpt lat="44.82516" lon="3.09602">
        <ele>960</ele>
        <time>2018-04-27T08:43:54Z</time>
      </trkpt>
      <trkpt lat="44.82507" lon="3.0962">
        <ele>959</ele>
        <time>2018-04-27T08:44:54Z</time>
      </trkpt>
      <trkpt lat="44.82506" lon="3.09636">
        <ele>957</ele>
        <time>2018-04-27T08:45:54Z</time>
      </trkpt>
      <trkpt lat="44.8251" lon="3.09663">
        <ele>955</ele>
        <time>2018-04-27T08:46:54Z</time>
      </trkpt>
      <trkpt lat="44.82517" lon="3.09682">
        <ele>955</ele>
        <time>2018-04-27T08:47:54Z</time>
      </trkpt>
      <trkpt lat="44.82528" lon="3.09697">
        <ele>955</ele>
        <time>2018-04-27T08:48:54Z</time>
      </trkpt>
      <trkpt lat="44.82533" lon="3.09706">
        <ele>955</ele>
        <time>2018-04-27T08:49:54Z</time>
      </trkpt>
      <trkpt lat="44.82549" lon="3.09721">
        <ele>955</ele>
        <time>2018-04-27T08:50:54Z</time>
      </trkpt>
      <trkpt lat="44.82579" lon="3.09739">
        <ele>955</ele>
        <time>2018-04-27T08:51:54Z</time>
      </trkpt>
      <trkpt lat="44.82588" lon="3.09749">
        <ele>956</ele>
        <time>2018-04-27T08:52:54Z</time>
      </trkpt>
      <trkpt lat="44.82616" lon="3.098">
        <ele>959</ele>
        <time>2018-04-27T08:53:54Z</time>
      </trkpt>
      <trkpt lat="44.82623" lon="3.09819">
        <ele>961</ele>
        <time>2018-04-27T08:54:54Z</time>
      </trkpt>
      <trkpt lat="44.82625" lon="3.09853">
        <ele>962</ele>
        <time>2018-04-27T08:55:54Z</time>
      </trkpt>
      <trkpt lat="44.82624" lon="3.09908">
        <ele>964</ele>
        <time>2018-04-27T08:56:54Z</time>
      </trkpt>
      <trkpt lat="44.82615" lon="3.09962">
        <ele>968</ele>
        <time>2018-04-27T08:57:54Z</time>
      </trkpt>
      <trkpt lat="44.82605" lon="3.10004">
        <ele>972</ele>
        <time>2018-04-27T08:58:54Z</time>
      </trkpt>
      <trkpt lat="44.8261" lon="3.10058">
        <ele>973</ele>
        <time>2018-04-27T08:59:54Z</time>
      </trkpt>
      <trkpt lat="44.82613" lon="3.10076">
        <ele>973</ele>
        <time>2018-04-27T09:00:54Z</time>
      </trkpt>
      <trkpt lat="44.82618" lon="3.10092">
        <ele>973</ele>
        <time>2018-04-27T09:01:54Z</time>
      </trkpt>
      <trkpt lat="44.82639" lon="3.10127">
        <ele>973</ele>
        <time>2018-04-27T09:02:54Z</time>
      </trkpt>
      <trkpt lat="44.82637" lon="3.10128">
        <ele>973</ele>
        <time>2018-04-27T09:03:54Z</time>
      </trkpt>
      <trkpt lat="44.82637" lon="3.10128">
        <ele>973</ele>
        <time>2018-04-27T09:04:54Z</time>
      </trkpt>
      <trkpt lat="44.82639" lon="3.10127">
        <ele>973</ele>
        <time>2018-04-27T09:05:54Z</time>
      </trkpt>
      <trkpt lat="44.82647" lon="3.10137">
        <ele>972</ele>
        <time>2018-04-27T09:06:54Z</time>
      </trkpt>
      <trkpt lat="44.82656" lon="3.10152">
        <ele>972</ele>
        <time>2018-04-27T09:07:54Z</time>
      </trkpt>
      <trkpt lat="44.82659" lon="3.10171">
        <ele>972</ele>
        <time>2018-04-27T09:08:54Z</time>
      </trkpt>
      <trkpt lat="44.82662" lon="3.10183">
        <ele>974</ele>
        <time>2018-04-27T09:09:54Z</time>
      </trkpt>
      <trkpt lat="44.82668" lon="3.10202">
        <ele>976</ele>
        <time>2018-04-27T09:10:54Z</time>
      </trkpt>
      <trkpt lat="44.82674" lon="3.10216">
        <ele>976</ele>
        <time>2018-04-27T09:11:54Z</time>
      </trkpt>
      <trkpt lat="44.82722" lon="3.10283">
        <ele>968</ele>
        <time>2018-04-27T09:12:54Z</time>
      </trkpt>
      <trkpt lat="44.82733" lon="3.10313">
        <ele>966</ele>
        <time>2018-04-27T09:13:54Z</time>
      </trkpt>
      <trkpt lat="44.82736" lon="3.1034">
        <ele>967</ele>
        <time>2018-04-27T09:14:54Z</time>
      </trkpt>
      <trkpt lat="44.82749" lon="3.10384">
        <ele>965</ele>
        <time>2018-04-27T09:15:54Z</time>
      </trkpt>
      <trkpt lat="44.82759" lon="3.10399">
        <ele>963</ele>
        <time>2018-04-27T09:16:54Z</time>
      </trkpt>
      <trkpt lat="44.8278" lon="3.10422">
        <ele>958</ele>
        <time>2018-04-27T09:17:54Z</time>
      </trkpt>
      <trkpt lat="44.82786" lon="3.10435">
        <ele>957</ele>
        <time>2018-04-27T09:18:54Z</time>
      </trkpt>
      <trkpt lat="44.82789" lon="3.10449">
        <ele>956</ele>
        <time>2018-04-27T09:19:54Z</time>
      </trkpt>
      <trkpt lat="44.82789" lon="3.10494">
        <ele>958</ele>
        <time>2018-04-27T09:20:54Z</time>
      </trkpt>
      <trkpt lat="44.82786" lon="3.10512">
        <ele>957</ele>
        <time>2018-04-27T09:21:54Z</time>
      </trkpt>
      <trkpt lat="44.82783" lon="3.10589">
        <ele>952</ele>
        <time>2018-04-27T09:22:54Z</time>
      </trkpt>
      <trkpt lat="44.82783" lon="3.10589">
        <ele>952</ele>
        <time>2018-04-27T09:23:54Z</time>
      </trkpt>
      <trkpt lat="44.82783" lon="3.10592">
        <ele>952</ele>
        <time>2018-04-27T09:24:54Z</time>
      </trkpt>
      <trkpt lat="44.82787" lon="3.10595">
        <ele>952</ele>
        <time>2018-04-27T09:25:54Z</time>
      </trkpt>
      <trkpt lat="44.82808" lon="3.10638">
        <ele>947</ele>
        <time>2018-04-27T09:26:54Z</time>
      </trkpt>
      <trkpt lat="44.82808" lon="3.10638">
        <ele>947</ele>
        <time>2018-04-27T09:27:54Z</time>
      </trkpt>
      <trkpt lat="44.82811" lon="3.10644">
        <ele>947</ele>
        <time>2018-04-27T09:28:54Z</time>
      </trkpt>
      <trkpt lat="44.82815" lon="3.10644">
        <ele>947</ele>
        <time>2018-04-27T09:29:54Z</time>
      </trkpt>
      <trkpt lat="44.82819" lon="3.10641">
        <ele>946</ele>
        <time>2018-04-27T09:30:54Z</time>
      </trkpt>
      <trkpt lat="44.82821" lon="3.10634">
        <ele>946</ele>
        <time>2018-04-27T09:31:54Z</time>
      </trkpt>
      <trkpt lat="44.82821" lon="3.10616">
        <ele>947</ele>
        <time>2018-04-27T09:32:54Z</time>
      </trkpt>
      <trkpt lat="44.82823" lon="3.10611">
        <ele>947</ele>
        <time>2018-04-27T09:33:54Z</time>
      </trkpt>
      <trkpt lat="44.82826" lon="3.10609">
        <ele>946</ele>
        <time>2018-04-27T09:34:54Z</time>
      </trkpt>
      <trkpt lat="44.82837" lon="3.10624">
        <ele>945</ele>
        <time>2018-04-27T09:35:54Z</time>
      </trkpt>
      <trkpt lat="44.82872" lon="3.10644">
        <ele>938</ele>
        <time>2018-04-27T09:36:54Z</time>
      </trkpt>
      <trkpt lat="44.82877" lon="3.10652">
        <ele>937</ele>
        <time>2018-04-27T09:37:54Z</time>
      </trkpt>
      <trkpt lat="44.82882" lon="3.10668">
        <ele>936</ele>
        <time>2018-04-27T09:38:54Z</time>
      </trkpt>
      <trkpt lat="44.82897" lon="3.10703">
        <ele>933</ele>
        <time>2018-04-27T09:39:54Z</time>
      </trkpt>
      <trkpt lat="44.829" lon="3.10735">
        <ele>933</ele>
        <time>2018-04-27T09:40:54Z</time>
      </trkpt>
      <trkpt lat="44.82896" lon="3.10758">
        <ele>934</ele>
        <time>2018-04-27T09:41:54Z</time>
      </trkpt>
      <trkpt lat="44.82897" lon="3.10774">
        <ele>935</ele>
        <time>2018-04-27T09:42:54Z</time>
      </trkpt>
      <trkpt lat="44.82901" lon="3.10788">
        <ele>935</ele>
        <time>2018-04-27T09:43:54Z</time>
      </trkpt>
      <trkpt lat="44.82908" lon="3.10801">
        <ele>936</ele>
        <time>2018-04-27T09:44:54Z</time>
      </trkpt>
      <trkpt lat="44.82915" lon="3.10805">
        <ele>936</ele>
        <time>2018-04-27T09:45:54Z</time>
      </trkpt>
      <trkpt lat="44.82929" lon="3.10802">
        <ele>939</ele>
        <time>2018-04-27T09:46:54Z</time>
      </trkpt>
      <trkpt lat="44.82944" lon="3.10792">
        <ele>942</ele>
        <time>2018-04-27T09:47:54Z</time>
      </trkpt>
      <trkpt lat="44.8295" lon="3.10776">
        <ele>942</ele>
        <time>2018-04-27T09:48:54Z</time>
      </trkpt>
      <trkpt lat="44.82953" lon="3.10761">
        <ele>941</ele>
        <time>2018-04-27T09:49:54Z</time>
      </trkpt>
      <trkpt lat="44.82956" lon="3.10679">
        <ele>939</ele>
        <time>2018-04-27T09:50:54Z</time>
      </trkpt>
      <trkpt lat="44.82961" lon="3.10642">
        <ele>939</ele>
        <time>2018-04-27T09:51:54Z</time>
      </trkpt>
      <trkpt lat="44.82971" lon="3.10596">
        <ele>940</ele>
        <time>2018-04-27T09:52:54Z</time>
      </trkpt>
      <trkpt lat="44.82983" lon="3.10515">
        <ele>937</ele>
        <time>2018-04-27T09:53:54Z</time>
      </trkpt>
      <trkpt lat="44.82998" lon="3.10479">
        <ele>936</ele>
        <time>2018-04-27T09:54:54Z</time>
      </trkpt>
      <trkpt lat="44.83005" lon="3.10468">
        <ele>936</ele>
        <time>2018-04-27T09:55:54Z</time>
      </trkpt>
      <trkpt lat="44.83015" lon="3.10457">
        <ele>936</ele>
        <time>2018-04-27T09:56:54Z</time>
      </trkpt>
      <trkpt lat="44.83015" lon="3.10457">
        <ele>936</ele>
        <time>2018-04-27T09:57:54Z</time>
      </trkpt>
      <trkpt lat="44.83024" lon="3.10452">
        <ele>937</ele>
        <time>2018-04-27T09:58:54Z</time>
      </trkpt>
      <trkpt lat="44.83034" lon="3.1045">
        <ele>938</ele>
        <time>2018-04-27T09:59:54Z</time>
      </trkpt>
      <trkpt lat="44.83043" lon="3.10452">
        <ele>939</ele>
        <time>2018-04-27T10:00:54Z</time>
      </trkpt>
      <trkpt lat="44.83054" lon="3.10458">
        <ele>942</ele>
        <time>2018-04-27T10:01:54Z</time>
      </trkpt>
      <trkpt lat="44.831" lon="3.10518">
        <ele>956</ele>
        <time>2018-04-27T10:02:54Z</time>
      </trkpt>
      <trkpt lat="44.83113" lon="3.1054">
        <ele>959</ele>
        <time>2018-04-27T10:03:54Z</time>
      </trkpt>
      <trkpt lat="44.83134" lon="3.10594">
        <ele>965</ele>
        <time>2018-04-27T10:04:54Z</time>
      </trkpt>
      <trkpt lat="44.83149" lon="3.10642">
        <ele>968</ele>
        <time>2018-04-27T10:05:54Z</time>
      </trkpt>
      <trkpt lat="44.83154" lon="3.10693">
        <ele>972</ele>
        <time>2018-04-27T10:06:54Z</time>
      </trkpt>
      <trkpt lat="44.83157" lon="3.10704">
        <ele>973</ele>
        <time>2018-04-27T10:07:54Z</time>
      </trkpt>
      <trkpt lat="44.83164" lon="3.10723">
        <ele>975</ele>
        <time>2018-04-27T10:08:54Z</time>
      </trkpt>
      <trkpt lat="44.8318" lon="3.10754">
        <ele>978</ele>
        <time>2018-04-27T10:09:54Z</time>
      </trkpt>
      <trkpt lat="44.83183" lon="3.10787">
        <ele>980</ele>
        <time>2018-04-27T10:10:54Z</time>
      </trkpt>
      <trkpt lat="44.83177" lon="3.10805">
        <ele>980</ele>
        <time>2018-04-27T10:11:54Z</time>
      </trkpt>
      <trkpt lat="44.83177" lon="3.10805">
        <ele>980</ele>
        <time>2018-04-27T10:12:54Z</time>
      </trkpt>
      <trkpt lat="44.83174" lon="3.10809">
        <ele>980</ele>
        <time>2018-04-27T10:13:54Z</time>
      </trkpt>
      <trkpt lat="44.8318" lon="3.10819">
        <ele>981</ele>
        <time>2018-04-27T10:14:54Z</time>
      </trkpt>
      <trkpt lat="44.83249" lon="3.10877">
        <ele>989</ele>
        <time>2018-04-27T10:15:54Z</time>
      </trkpt>
      <trkpt lat="44.83259" lon="3.10893">
        <ele>989</ele>
        <time>2018-04-27T10:16:54Z</time>
      </trkpt>
      <trkpt lat="44.83268" lon="3.10905">
        <ele>990</ele>
        <time>2018-04-27T10:17:54Z</time>
      </trkpt>
      <trkpt lat="44.83287" lon="3.10939">
        <ele>993</ele>
        <time>2018-04-27T10:18:54Z</time>
      </trkpt>
      <trkpt lat="44.83292" lon="3.10944">
        <ele>993</ele>
        <time>2018-04-27T10:19:54Z</time>
      </trkpt>
      <trkpt lat="44.83306" lon="3.10946">
        <ele>994</ele>
        <time>2018-04-27T10:20:54Z</time>
      </trkpt>
      <trkpt lat="44.83313" lon="3.10951">
        <ele>994</ele>
        <time>2018-04-27T10:21:54Z</time>
      </trkpt>
      <trkpt lat="44.83313" lon="3.10951">
        <ele>994</ele>
        <time>2018-04-27T10:22:54Z</time>
      </trkpt>
      <trkpt lat="44.83358" lon="3.10939">
        <ele>994</ele>
        <time>2018-04-27T10:23:54Z</time>
      </trkpt>
      <trkpt lat="44.83382" lon="3.10931">
        <ele>993</ele>
        <time>2018-04-27T10:24:54Z</time>
      </trkpt>
      <trkpt lat="44.83422" lon="3.10922">
        <ele>993</ele>
        <time>2018-04-27T10:25:54Z</time>
      </trkpt>
      <trkpt lat="44.83448" lon="3.10914">
        <ele>993</ele>
        <time>2018-04-27T10:26:54Z</time>
      </trkpt>
      <trkpt lat="44.83457" lon="3.10906">
        <ele>993</ele>
        <time>2018-04-27T10:27:54Z</time>
      </trkpt>
      <trkpt lat="44.83503" lon="3.10847">
        <ele>993</ele>
        <time>2018-04-27T10:28:54Z</time>
      </trkpt>
      <trkpt lat="44.83532" lon="3.10829">
        <ele>994</ele>
        <time>2018-04-27T10:29:54Z</time>
      </trkpt>
      <trkpt lat="44.83532" lon="3.10829">
        <ele>994</ele>
        <time>2018-04-27T10:30:54Z</time>
      </trkpt>
      <trkpt lat="44.83614" lon="3.10778">
        <ele>1000</ele>
        <time>2018-04-27T10:31:54Z</time>
      </trkpt>
      <trkpt lat="44.83654" lon="3.10762">
        <ele>1001</ele>
        <time>2018-04-27T10:32:54Z</time>
      </trkpt>
      <trkpt lat="44.83684" lon="3.10761">
        <ele>1000</ele>
        <time>2018-04-27T10:33:54Z</time>
      </trkpt>
      <trkpt lat="44.83692" lon="3.10763">
        <ele>999</ele>
        <time>2018-04-27T10:34:54Z</time>
      </trkpt>
      <trkpt lat="44.83749" lon="3.10765">
        <ele>995</ele>
        <time>2018-04-27T10:35:54Z</time>
      </trkpt>
      <trkpt lat="44.83749" lon="3.10765">
        <ele>995</ele>
        <time>2018-04-27T10:36:54Z</time>
      </trkpt>
      <trkpt lat="44.83776" lon="3.10766">
        <ele>995</ele>
        <time>2018-04-27T10:37:54Z</time>
      </trkpt>
      <trkpt lat="44.83833" lon="3.10733">
        <ele>992</ele>
        <time>2018-04-27T10:38:54Z</time>
      </trkpt>
      <trkpt lat="44.83846" lon="3.10728">
        <ele>993</ele>
        <time>2018-04-27T10:39:54Z</time>
      </trkpt>
      <trkpt lat="44.83854" lon="3.10728">
        <ele>993</ele>
        <time>2018-04-27T10:40:54Z</time>
      </trkpt>
      <trkpt lat="44.83864" lon="3.10733">
        <ele>994</ele>
        <time>2018-04-27T10:41:54Z</time>
      </trkpt>
      <trkpt lat="44.8387" lon="3.10739">
        <ele>994</ele>
        <time>2018-04-27T10:42:54Z</time>
      </trkpt>
      <trkpt lat="44.83884" lon="3.10748">
        <ele>995</ele>
        <time>2018-04-27T10:43:54Z</time>
      </trkpt>
      <trkpt lat="44.8392" lon="3.10749">
        <ele>997</ele>
        <time>2018-04-27T10:44:54Z</time>
      </trkpt>
      <trkpt lat="44.83972" lon="3.10744">
        <ele>1004</ele>
        <time>2018-04-27T10:45:54Z</time>
      </trkpt>
      <trkpt lat="44.83974" lon="3.10745">
        <ele>1004</ele>
        <time>2018-04-27T10:46:54Z</time>
      </trkpt>
      <trkpt lat="44.83974" lon="3.10745">
        <ele>1004</ele>
        <time>2018-04-27T10:47:54Z</time>
      </trkpt>
      <trkpt lat="44.83988" lon="3.10752">
        <ele>1007</ele>
        <time>2018-04-27T10:48:54Z</time>
      </trkpt>
      <trkpt lat="44.84003" lon="3.10766">
        <ele>1009</ele>
        <time>2018-04-27T10:49:54Z</time>
      </trkpt>
      <trkpt lat="44.84019" lon="3.10773">
        <ele>1012</ele>
        <time>2018-04-27T10:50:54Z</time>
      </trkpt>
      <trkpt lat="44.84025" lon="3.10772">
        <ele>1012</ele>
        <time>2018-04-27T10:51:54Z</time>
      </trkpt>
      <trkpt lat="44.84054" lon="3.10758">
        <ele>1015</ele>
        <time>2018-04-27T10:52:54Z</time>
      </trkpt>
      <trkpt lat="44.84063" lon="3.10748">
        <ele>1015</ele>
        <time>2018-04-27T10:53:54Z</time>
      </trkpt>
      <trkpt lat="44.84099" lon="3.10728">
        <ele>1018</ele>
        <time>2018-04-27T10:54:54Z</time>
      </trkpt>
      <trkpt lat="44.84117" lon="3.10726">
        <ele>1019</ele>
        <time>2018-04-27T10:55:54Z</time>
      </trkpt>
      <trkpt lat="44.84208" lon="3.10737">
        <ele>1024</ele>
        <time>2018-04-27T10:56:54Z</time>
      </trkpt>
      <trkpt lat="44.84208" lon="3.10737">
        <ele>1024</ele>
        <time>2018-04-27T10:57:54Z</time>
      </trkpt>
      <trkpt lat="44.84336" lon="3.10749">
        <ele>1024</ele>
        <time>2018-04-27T10:58:54Z</time>
      </trkpt>
      <trkpt lat="44.84351" lon="3.10754">
        <ele>1024</ele>
        <time>2018-04-27T10:59:54Z</time>
      </trkpt>
      <trkpt lat="44.84386" lon="3.10778">
        <ele>1024</ele>
        <time>2018-04-27T11:00:54Z</time>
      </trkpt>
      <trkpt lat="44.84407" lon="3.10795">
        <ele>1024</ele>
        <time>2018-04-27T11:01:54Z</time>
      </trkpt>
      <trkpt lat="44.8442" lon="3.10802">
        <ele>1024</ele>
        <time>2018-04-27T11:02:54Z</time>
      </trkpt>
      <trkpt lat="44.84438" lon="3.10806">
        <ele>1024</ele>
        <time>2018-04-27T11:03:54Z</time>
      </trkpt>
      <trkpt lat="44.84438" lon="3.10806">
        <ele>1024</ele>
        <time>2018-04-27T11:04:54Z</time>
      </trkpt>
      <trkpt lat="44.84473" lon="3.10811">
        <ele>1024</ele>
        <time>2018-04-27T11:05:54Z</time>
      </trkpt>
      <trkpt lat="44.84505" lon="3.10811">
        <ele>1025</ele>
        <time>2018-04-27T11:06:54Z</time>
      </trkpt>
      <trkpt lat="44.84568" lon="3.10799">
        <ele>1029</ele>
        <time>2018-04-27T11:07:54Z</time>
      </trkpt>
      <trkpt lat="44.84617" lon="3.108">
        <ele>1031</ele>
        <time>2018-04-27T11:08:54Z</time>
      </trkpt>
      <trkpt lat="44.84635" lon="3.1077">
        <ele>1029</ele>
        <time>2018-04-27T11:09:54Z</time>
      </trkpt>
      <trkpt lat="44.84635" lon="3.1077">
        <ele>1029</ele>
        <time>2018-04-27T11:10:54Z</time>
      </trkpt>
      <trkpt lat="44.84655" lon="3.1074">
        <ele>1027</ele>
        <time>2018-04-27T11:11:54Z</time>
      </trkpt>
      <trkpt lat="44.84662" lon="3.10737">
        <ele>1026</ele>
        <time>2018-04-27T11:12:54Z</time>
      </trkpt>
      <trkpt lat="44.84684" lon="3.10716">
        <ele>1025</ele>
        <time>2018-04-27T11:13:54Z</time>
      </trkpt>
      <trkpt lat="44.84706" lon="3.10704">
        <ele>1025</ele>
        <time>2018-04-27T11:14:54Z</time>
      </trkpt>
      <trkpt lat="44.84722" lon="3.10699">
        <ele>1026</ele>
        <time>2018-04-27T11:15:54Z</time>
      </trkpt>
      <trkpt lat="44.8473" lon="3.10693">
        <ele>1026</ele>
        <time>2018-04-27T11:16:54Z</time>
      </trkpt>
      <trkpt lat="44.84739" lon="3.10686">
        <ele>1026</ele>
        <time>2018-04-27T11:17:54Z</time>
      </trkpt>
      <trkpt lat="44.8476" lon="3.10662">
        <ele>1027</ele>
        <time>2018-04-27T11:18:54Z</time>
      </trkpt>
      <trkpt lat="44.84783" lon="3.10639">
        <ele>1028</ele>
        <time>2018-04-27T11:19:54Z</time>
      </trkpt>
      <trkpt lat="44.84793" lon="3.10628">
        <ele>1028</ele>
        <time>2018-04-27T11:20:54Z</time>
      </trkpt>
      <trkpt lat="44.84802" lon="3.10604">
        <ele>1027</ele>
        <time>2018-04-27T11:21:54Z</time>
      </trkpt>
      <trkpt lat="44.84809" lon="3.1059">
        <ele>1027</ele>
        <time>2018-04-27T11:22:54Z</time>
      </trkpt>
      <trkpt lat="44.84831" lon="3.10554">
        <ele>1027</ele>
        <time>2018-04-27T11:23:54Z</time>
      </trkpt>
      <trkpt lat="44.84844" lon="3.10538">
        <ele>1027</ele>
        <time>2018-04-27T11:24:54Z</time>
      </trkpt>
      <trkpt lat="44.84844" lon="3.10538">
        <ele>1027</ele>
        <time>2018-04-27T11:25:54Z</time>
      </trkpt>
      <trkpt lat="44.8488" lon="3.10497">
        <ele>1023</ele>
        <time>2018-04-27T11:26:54Z</time>
      </trkpt>
      <trkpt lat="44.84886" lon="3.10486">
        <ele>1022</ele>
        <time>2018-04-27T11:27:54Z</time>
      </trkpt>
      <trkpt lat="44.849" lon="3.10472">
        <ele>1019</ele>
        <time>2018-04-27T11:28:54Z</time>
      </trkpt>
      <trkpt lat="44.84944" lon="3.10462">
        <ele>1016</ele>
        <time>2018-04-27T11:29:54Z</time>
      </trkpt>
      <trkpt lat="44.84998" lon="3.10442">
        <ele>1010</ele>
        <time>2018-04-27T11:30:54Z</time>
      </trkpt>
      <trkpt lat="44.85027" lon="3.10436">
        <ele>1010</ele>
        <time>2018-04-27T11:31:54Z</time>
      </trkpt>
      <trkpt lat="44.85057" lon="3.10422">
        <ele>1010</ele>
        <time>2018-04-27T11:32:54Z</time>
      </trkpt>
      <trkpt lat="44.85057" lon="3.10422">
        <ele>1010</ele>
        <time>2018-04-27T11:33:54Z</time>
      </trkpt>
      <trkpt lat="44.85105" lon="3.10391">
        <ele>1009</ele>
        <time>2018-04-27T11:34:54Z</time>
      </trkpt>
      <trkpt lat="44.85114" lon="3.10381">
        <ele>1009</ele>
        <time>2018-04-27T11:35:54Z</time>
      </trkpt>
      <trkpt lat="44.85122" lon="3.10369">
        <ele>1008</ele>
        <time>2018-04-27T11:36:54Z</time>
      </trkpt>
      <trkpt lat="44.85133" lon="3.1033">
        <ele>1004</ele>
        <time>2018-04-27T11:37:54Z</time>
      </trkpt>
      <trkpt lat="44.85145" lon="3.10274">
        <ele>997</ele>
        <time>2018-04-27T11:38:54Z</time>
      </trkpt>
      <trkpt lat="44.85154" lon="3.10248">
        <ele>995</ele>
        <time>2018-04-27T11:39:54Z</time>
      </trkpt>
      <trkpt lat="44.8517" lon="3.10221">
        <ele>990</ele>
        <time>2018-04-27T11:40:54Z</time>
      </trkpt>
      <trkpt lat="44.85184" lon="3.1021">
        <ele>986</ele>
        <time>2018-04-27T11:41:54Z</time>
      </trkpt>
      <trkpt lat="44.8522" lon="3.10193">
        <ele>983</ele>
        <time>2018-04-27T11:42:54Z</time>
      </trkpt>
      <trkpt lat="44.85256" lon="3.1018">
        <ele>981</ele>
        <time>2018-04-27T11:43:54Z</time>
      </trkpt>
      <trkpt lat="44.85272" lon="3.10163">
        <ele>979</ele>
        <time>2018-04-27T11:44:54Z</time>
      </trkpt>
      <trkpt lat="44.85272" lon="3.10163">
        <ele>979</ele>
        <time>2018-04-27T11:45:54Z</time>
      </trkpt>
      <trkpt lat="44.85289" lon="3.10145">
        <ele>977</ele>
        <time>2018-04-27T11:46:54Z</time>
      </trkpt>
      <trkpt lat="44.853" lon="3.10137">
        <ele>977</ele>
        <time>2018-04-27T11:47:54Z</time>
      </trkpt>
      <trkpt lat="44.85318" lon="3.10136">
        <ele>975</ele>
        <time>2018-04-27T11:48:54Z</time>
      </trkpt>
      <trkpt lat="44.85337" lon="3.10149">
        <ele>973</ele>
        <time>2018-04-27T11:49:54Z</time>
      </trkpt>
      <trkpt lat="44.85377" lon="3.10193">
        <ele>966</ele>
        <time>2018-04-27T11:50:54Z</time>
      </trkpt>
      <trkpt lat="44.8539" lon="3.10202">
        <ele>964</ele>
        <time>2018-04-27T11:51:54Z</time>
      </trkpt>
      <trkpt lat="44.85416" lon="3.10208">
        <ele>959</ele>
        <time>2018-04-27T11:52:54Z</time>
      </trkpt>
      <trkpt lat="44.85433" lon="3.10222">
        <ele>958</ele>
        <time>2018-04-27T11:53:54Z</time>
      </trkpt>
      <trkpt lat="44.85439" lon="3.10219">
        <ele>958</ele>
        <time>2018-04-27T11:54:54Z</time>
      </trkpt>
      <trkpt lat="44.85448" lon="3.1021">
        <ele>957</ele>
        <time>2018-04-27T11:55:54Z</time>
      </trkpt>
      <trkpt lat="44.85448" lon="3.1021">
        <ele>957</ele>
        <time>2018-04-27T11:56:54Z</time>
      </trkpt>
      <trkpt lat="44.85465" lon="3.10185">
        <ele>955</ele>
        <time>2018-04-27T11:57:54Z</time>
      </trkpt>
      <trkpt lat="44.85479" lon="3.10159">
        <ele>954</ele>
        <time>2018-04-27T11:58:54Z</time>
      </trkpt>
      <trkpt lat="44.85513" lon="3.10079">
        <ele>955</ele>
        <time>2018-04-27T11:59:54Z</time>
      </trkpt>
      <trkpt lat="44.85527" lon="3.1005">
        <ele>957</ele>
        <time>2018-04-27T12:00:54Z</time>
      </trkpt>
      <trkpt lat="44.85527" lon="3.1005">
        <ele>957</ele>
        <time>2018-04-27T12:01:54Z</time>
      </trkpt>
      <trkpt lat="44.8553" lon="3.10044">
        <ele>957</ele>
        <time>2018-04-27T12:02:54Z</time>
      </trkpt>
      <trkpt lat="44.85544" lon="3.09971">
        <ele>959</ele>
        <time>2018-04-27T12:03:54Z</time>
      </trkpt>
      <trkpt lat="44.8555" lon="3.0995">
        <ele>959</ele>
        <time>2018-04-27T12:04:54Z</time>
      </trkpt>
      <trkpt lat="44.85553" lon="3.09944">
        <ele>960</ele>
        <time>2018-04-27T12:05:54Z</time>
      </trkpt>
      <trkpt lat="44.85553" lon="3.09944">
        <ele>960</ele>
        <time>2018-04-27T12:06:54Z</time>
      </trkpt>
      <trkpt lat="44.85554" lon="3.09941">
        <ele>960</ele>
        <time>2018-04-27T12:07:54Z</time>
      </trkpt>
      <trkpt lat="44.85556" lon="3.09924">
        <ele>960</ele>
        <time>2018-04-27T12:08:54Z</time>
      </trkpt>
      <trkpt lat="44.8555" lon="3.09878">
        <ele>959</ele>
        <time>2018-04-27T12:09:54Z</time>
      </trkpt>
      <trkpt lat="44.85518" lon="3.09787">
        <ele>959</ele>
        <time>2018-04-27T12:10:54Z</time>
      </trkpt>
      <trkpt lat="44.85508" lon="3.09739">
        <ele>961</ele>
        <time>2018-04-27T12:11:54Z</time>
      </trkpt>
      <trkpt lat="44.85498" lon="3.09708">
        <ele>963</ele>
        <time>2018-04-27T12:12:54Z</time>
      </trkpt>
      <trkpt lat="44.85498" lon="3.09708">
        <ele>963</ele>
        <time>2018-04-27T12:13:54Z</time>
      </trkpt>
      <trkpt lat="44.85508" lon="3.09739">
        <ele>961</ele>
        <time>2018-04-27T12:14:54Z</time>
      </trkpt>
      <trkpt lat="44.85518" lon="3.09787">
        <ele>959</ele>
        <time>2018-04-27T12:15:54Z</time>
      </trkpt>
      <trkpt lat="44.8555" lon="3.09878">
        <ele>959</ele>
        <time>2018-04-27T12:16:54Z</time>
      </trkpt>
      <trkpt lat="44.85556" lon="3.09924">
        <ele>960</ele>
        <time>2018-04-27T12:17:54Z</time>
      </trkpt>
      <trkpt lat="44.85554" lon="3.09941">
        <ele>960</ele>
        <time>2018-04-27T12:18:54Z</time>
      </trkpt>
      <trkpt lat="44.85563" lon="3.09944">
        <ele>961</ele>
        <time>2018-04-27T12:19:54Z</time>
      </trkpt>
      <trkpt lat="44.85563" lon="3.09944">
        <ele>961</ele>
        <time>2018-04-27T12:20:54Z</time>
      </trkpt>
      <trkpt lat="44.8558" lon="3.09959">
        <ele>964</ele>
        <time>2018-04-27T12:21:54Z</time>
      </trkpt>
      <trkpt lat="44.85588" lon="3.09975">
        <ele>964</ele>
        <time>2018-04-27T12:22:54Z</time>
      </trkpt>
      <trkpt lat="44.8561" lon="3.10064">
        <ele>965</ele>
        <time>2018-04-27T12:23:54Z</time>
      </trkpt>
      <trkpt lat="44.85622" lon="3.10106">
        <ele>965</ele>
        <time>2018-04-27T12:24:54Z</time>
      </trkpt>
      <trkpt lat="44.85655" lon="3.10178">
        <ele>971</ele>
        <time>2018-04-27T12:25:54Z</time>
      </trkpt>
      <trkpt lat="44.85663" lon="3.10188">
        <ele>972</ele>
        <time>2018-04-27T12:26:54Z</time>
      </trkpt>
      <trkpt lat="44.85704" lon="3.10195">
        <ele>974</ele>
        <time>2018-04-27T12:27:54Z</time>
      </trkpt>
      <trkpt lat="44.85704" lon="3.10195">
        <ele>974</ele>
        <time>2018-04-27T12:28:54Z</time>
      </trkpt>
      <trkpt lat="44.8571" lon="3.10196">
        <ele>975</ele>
        <time>2018-04-27T12:29:54Z</time>
      </trkpt>
      <trkpt lat="44.85732" lon="3.10206">
        <ele>976</ele>
        <time>2018-04-27T12:30:54Z</time>
      </trkpt>
      <trkpt lat="44.85742" lon="3.10215">
        <ele>977</ele>
        <time>2018-04-27T12:31:54Z</time>
      </trkpt>
      <trkpt lat="44.85752" lon="3.10226">
        <ele>978</ele>
        <time>2018-04-27T12:32:54Z</time>
      </trkpt>
      <trkpt lat="44.85767" lon="3.10252">
        <ele>977</ele>
        <time>2018-04-27T12:33:54Z</time>
      </trkpt>
      <trkpt lat="44.8577" lon="3.10268">
        <ele>976</ele>
        <time>2018-04-27T12:34:54Z</time>
      </trkpt>
      <trkpt lat="44.85758" lon="3.10334">
        <ele>978</ele>
        <time>2018-04-27T12:35:54Z</time>
      </trkpt>
      <trkpt lat="44.8576" lon="3.1037">
        <ele>981</ele>
        <time>2018-04-27T12:36:54Z</time>
      </trkpt>
      <trkpt lat="44.85767" lon="3.10407">
        <ele>982</ele>
        <time>2018-04-27T12:37:54Z</time>
      </trkpt>
      <trkpt lat="44.85774" lon="3.10431">
        <ele>983</ele>
        <time>2018-04-27T12:38:54Z</time>
      </trkpt>
      <trkpt lat="44.85793" lon="3.10455">
        <ele>981</ele>
        <time>2018-04-27T12:39:54Z</time>
      </trkpt>
      <trkpt lat="44.85799" lon="3.10467">
        <ele>981</ele>
        <time>2018-04-27T12:40:54Z</time>
      </trkpt>
      <trkpt lat="44.85809" lon="3.10498">
        <ele>984</ele>
        <time>2018-04-27T12:41:54Z</time>
      </trkpt>
      <trkpt lat="44.85821" lon="3.10515">
        <ele>984</ele>
        <time>2018-04-27T12:42:54Z</time>
      </trkpt>
      <trkpt lat="44.85835" lon="3.10539">
        <ele>986</ele>
        <time>2018-04-27T12:43:54Z</time>
      </trkpt>
      <trkpt lat="44.85857" lon="3.10569">
        <ele>986</ele>
        <time>2018-04-27T12:44:54Z</time>
      </trkpt>
      <trkpt lat="44.85878" lon="3.10595">
        <ele>986</ele>
        <time>2018-04-27T12:45:54Z</time>
      </trkpt>
      <trkpt lat="44.85922" lon="3.10629">
        <ele>981</ele>
        <time>2018-04-27T12:46:54Z</time>
      </trkpt>
      <trkpt lat="44.85922" lon="3.10629">
        <ele>981</ele>
        <time>2018-04-27T12:47:54Z</time>
      </trkpt>
      <trkpt lat="44.85931" lon="3.10635">
        <ele>981</ele>
        <time>2018-04-27T12:48:54Z</time>
      </trkpt>
      <trkpt lat="44.85941" lon="3.10651">
        <ele>984</ele>
        <time>2018-04-27T12:49:54Z</time>
      </trkpt>
      <trkpt lat="44.85945" lon="3.10667">
        <ele>988</ele>
        <time>2018-04-27T12:50:54Z</time>
      </trkpt>
      <trkpt lat="44.85967" lon="3.10699">
        <ele>987</ele>
        <time>2018-04-27T12:51:54Z</time>
      </trkpt>
      <trkpt lat="44.85974" lon="3.1072">
        <ele>989</ele>
        <time>2018-04-27T12:52:54Z</time>
      </trkpt>
      <trkpt lat="44.85991" lon="3.10742">
        <ele>985</ele>
        <time>2018-04-27T12:53:54Z</time>
      </trkpt>
      <trkpt lat="44.85998" lon="3.10755">
        <ele>984</ele>
        <time>2018-04-27T12:54:54Z</time>
      </trkpt>
      <trkpt lat="44.86029" lon="3.10794">
        <ele>982</ele>
        <time>2018-04-27T12:55:54Z</time>
      </trkpt>
      <trkpt lat="44.86057" lon="3.1082">
        <ele>978</ele>
        <time>2018-04-27T12:56:54Z</time>
      </trkpt>
      <trkpt lat="44.86103" lon="3.10846">
        <ele>970</ele>
        <time>2018-04-27T12:57:54Z</time>
      </trkpt>
      <trkpt lat="44.86112" lon="3.10856">
        <ele>969</ele>
        <time>2018-04-27T12:58:54Z</time>
      </trkpt>
      <trkpt lat="44.86117" lon="3.10864">
        <ele>969</ele>
        <time>2018-04-27T12:59:54Z</time>
      </trkpt>
      <trkpt lat="44.86118" lon="3.10879">
        <ele>970</ele>
        <time>2018-04-27T13:00:54Z</time>
      </trkpt>
      <trkpt lat="44.86115" lon="3.10895">
        <ele>973</ele>
        <time>2018-04-27T13:01:54Z</time>
      </trkpt>
      <trkpt lat="44.86116" lon="3.10927">
        <ele>976</ele>
        <time>2018-04-27T13:02:54Z</time>
      </trkpt>
      <trkpt lat="44.86124" lon="3.10975">
        <ele>980</ele>
        <time>2018-04-27T13:03:54Z</time>
      </trkpt>
      <trkpt lat="44.86136" lon="3.11017">
        <ele>981</ele>
        <time>2018-04-27T13:04:54Z</time>
      </trkpt>
      <trkpt lat="44.86151" lon="3.11042">
        <ele>979</ele>
        <time>2018-04-27T13:05:54Z</time>
      </trkpt>
      <trkpt lat="44.86165" lon="3.11058">
        <ele>976</ele>
        <time>2018-04-27T13:06:54Z</time>
      </trkpt>
      <trkpt lat="44.86193" lon="3.11095">
        <ele>975</ele>
        <time>2018-04-27T13:07:54Z</time>
      </trkpt>
      <trkpt lat="44.86215" lon="3.11118">
        <ele>973</ele>
        <time>2018-04-27T13:08:54Z</time>
      </trkpt>
      <trkpt lat="44.86215" lon="3.11118">
        <ele>973</ele>
        <time>2018-04-27T13:09:54Z</time>
      </trkpt>
      <trkpt lat="44.86238" lon="3.11145">
        <ele>971</ele>
        <time>2018-04-27T13:10:54Z</time>
      </trkpt>
      <trkpt lat="44.86247" lon="3.11161">
        <ele>972</ele>
        <time>2018-04-27T13:11:54Z</time>
      </trkpt>
      <trkpt lat="44.86251" lon="3.11184">
        <ele>972</ele>
        <time>2018-04-27T13:12:54Z</time>
      </trkpt>
      <trkpt lat="44.86244" lon="3.11223">
        <ele>973</ele>
        <time>2018-04-27T13:13:54Z</time>
      </trkpt>
      <trkpt lat="44.86228" lon="3.11294">
        <ele>981</ele>
        <time>2018-04-27T13:14:54Z</time>
      </trkpt>
      <trkpt lat="44.8623" lon="3.11302">
        <ele>981</ele>
        <time>2018-04-27T13:15:54Z</time>
      </trkpt>
      <trkpt lat="44.86235" lon="3.11307">
        <ele>980</ele>
        <time>2018-04-27T13:16:54Z</time>
      </trkpt>
      <trkpt lat="44.86247" lon="3.11309">
        <ele>978</ele>
        <time>2018-04-27T13:17:54Z</time>
      </trkpt>
      <trkpt lat="44.86279" lon="3.11306">
        <ele>971</ele>
        <time>2018-04-27T13:18:54Z</time>
      </trkpt>
      <trkpt lat="44.86303" lon="3.1131">
        <ele>968</ele>
        <time>2018-04-27T13:19:54Z</time>
      </trkpt>
      <trkpt lat="44.8632" lon="3.11318">
        <ele>966</ele>
        <time>2018-04-27T13:20:54Z</time>
      </trkpt>
      <trkpt lat="44.86365" lon="3.11355">
        <ele>964</ele>
        <time>2018-04-27T13:21:54Z</time>
      </trkpt>
      <trkpt lat="44.86383" lon="3.11367">
        <ele>962</ele>
        <time>2018-04-27T13:22:54Z</time>
      </trkpt>
      <trkpt lat="44.86391" lon="3.11376">
        <ele>962</ele>
        <time>2018-04-27T13:23:54Z</time>
      </trkpt>
      <trkpt lat="44.86394" lon="3.11383">
        <ele>963</ele>
        <time>2018-04-27T13:24:54Z</time>
      </trkpt>
      <trkpt lat="44.86395" lon="3.11426">
        <ele>969</ele>
        <time>2018-04-27T13:25:54Z</time>
      </trkpt>
      <trkpt lat="44.86394" lon="3.11451">
        <ele>970</ele>
        <time>2018-04-27T13:26:54Z</time>
      </trkpt>
      <trkpt lat="44.86388" lon="3.11477">
        <ele>972</ele>
        <time>2018-04-27T13:27:54Z</time>
      </trkpt>
      <trkpt lat="44.86367" lon="3.11533">
        <ele>979</ele>
        <time>2018-04-27T13:28:54Z</time>
      </trkpt>
      <trkpt lat="44.86365" lon="3.11544">
        <ele>979</ele>
        <time>2018-04-27T13:29:54Z</time>
      </trkpt>
      <trkpt lat="44.86367" lon="3.11563">
        <ele>979</ele>
        <time>2018-04-27T13:30:54Z</time>
      </trkpt>
      <trkpt lat="44.86372" lon="3.11591">
        <ele>979</ele>
        <time>2018-04-27T13:31:54Z</time>
      </trkpt>
      <trkpt lat="44.86384" lon="3.11625">
        <ele>980</ele>
        <time>2018-04-27T13:32:54Z</time>
      </trkpt>
      <trkpt lat="44.86415" lon="3.11665">
        <ele>980</ele>
        <time>2018-04-27T13:33:54Z</time>
      </trkpt>
      <trkpt lat="44.86436" lon="3.1168">
        <ele>984</ele>
        <time>2018-04-27T13:34:54Z</time>
      </trkpt>
      <trkpt lat="44.86436" lon="3.1168">
        <ele>984</ele>
        <time>2018-04-27T13:35:54Z</time>
      </trkpt>
      <trkpt lat="44.86441" lon="3.11684">
        <ele>985</ele>
        <time>2018-04-27T13:36:54Z</time>
      </trkpt>
      <trkpt lat="44.86458" lon="3.11688">
        <ele>986</ele>
        <time>2018-04-27T13:37:54Z</time>
      </trkpt>
      <trkpt lat="44.86475" lon="3.1169">
        <ele>988</ele>
        <time>2018-04-27T13:38:54Z</time>
      </trkpt>
      <trkpt lat="44.86544" lon="3.11677">
        <ele>990</ele>
        <time>2018-04-27T13:39:54Z</time>
      </trkpt>
      <trkpt lat="44.8656" lon="3.11677">
        <ele>992</ele>
        <time>2018-04-27T13:40:54Z</time>
      </trkpt>
      <trkpt lat="44.86597" lon="3.1169">
        <ele>996</ele>
        <time>2018-04-27T13:41:54Z</time>
      </trkpt>
      <trkpt lat="44.86623" lon="3.11712">
        <ele>999</ele>
        <time>2018-04-27T13:42:54Z</time>
      </trkpt>
      <trkpt lat="44.86654" lon="3.11717">
        <ele>999</ele>
        <time>2018-04-27T13:43:54Z</time>
      </trkpt>
      <trkpt lat="44.86654" lon="3.11717">
        <ele>999</ele>
        <time>2018-04-27T13:44:54Z</time>
      </trkpt>
      <trkpt lat="44.86676" lon="3.11725">
        <ele>999</ele>
        <time>2018-04-27T13:45:54Z</time>
      </trkpt>
      <trkpt lat="44.8672" lon="3.11719">
        <ele>999</ele>
        <time>2018-04-27T13:46:54Z</time>
      </trkpt>
      <trkpt lat="44.86741" lon="3.11714">
        <ele>998</ele>
        <time>2018-04-27T13:47:54Z</time>
      </trkpt>
      <trkpt lat="44.86758" lon="3.11706">
        <ele>997</ele>
        <time>2018-04-27T13:48:54Z</time>
      </trkpt>
      <trkpt lat="44.86782" lon="3.117">
        <ele>997</ele>
        <time>2018-04-27T13:49:54Z</time>
      </trkpt>
      <trkpt lat="44.8679" lon="3.11695">
        <ele>997</ele>
        <time>2018-04-27T13:50:54Z</time>
      </trkpt>
      <trkpt lat="44.86793" lon="3.11696">
        <ele>997</ele>
        <time>2018-04-27T13:51:54Z</time>
      </trkpt>
      <trkpt lat="44.86793" lon="3.11696">
        <ele>997</ele>
        <time>2018-04-27T13:52:54Z</time>
      </trkpt>
      <trkpt lat="44.8679" lon="3.11695">
        <ele>997</ele>
        <time>2018-04-27T13:53:54Z</time>
      </trkpt>
      <trkpt lat="44.86802" lon="3.11675">
        <ele>997</ele>
        <time>2018-04-27T13:54:54Z</time>
      </trkpt>
      <trkpt lat="44.86818" lon="3.11656">
        <ele>996</ele>
        <time>2018-04-27T13:55:54Z</time>
      </trkpt>
      <trkpt lat="44.86886" lon="3.116">
        <ele>993</ele>
        <time>2018-04-27T13:56:54Z</time>
      </trkpt>
      <trkpt lat="44.86924" lon="3.11582">
        <ele>992</ele>
        <time>2018-04-27T13:57:54Z</time>
      </trkpt>
      <trkpt lat="44.86939" lon="3.1158">
        <ele>991</ele>
        <time>2018-04-27T13:58:54Z</time>
      </trkpt>
      <trkpt lat="44.8699" lon="3.11555">
        <ele>988</ele>
        <time>2018-04-27T13:59:54Z</time>
      </trkpt>
      <trkpt lat="44.87007" lon="3.11549">
        <ele>987</ele>
        <time>2018-04-27T14:00:54Z</time>
      </trkpt>
      <trkpt lat="44.87007" lon="3.11549">
        <ele>987</ele>
        <time>2018-04-27T14:01:54Z</time>
      </trkpt>
      <trkpt lat="44.87052" lon="3.11505">
        <ele>980</ele>
        <time>2018-04-27T14:02:54Z</time>
      </trkpt>
      <trkpt lat="44.8707" lon="3.1149">
        <ele>977</ele>
        <time>2018-04-27T14:03:54Z</time>
      </trkpt>
      <trkpt lat="44.87083" lon="3.11482">
        <ele>975</ele>
        <time>2018-04-27T14:04:54Z</time>
      </trkpt>
      <trkpt lat="44.87158" lon="3.11472">
        <ele>967</ele>
        <time>2018-04-27T14:05:54Z</time>
      </trkpt>
      <trkpt lat="44.87204" lon="3.11455">
        <ele>961</ele>
        <time>2018-04-27T14:06:54Z</time>
      </trkpt>
      <trkpt lat="44.87234" lon="3.11455">
        <ele>958</ele>
        <time>2018-04-27T14:07:54Z</time>
      </trkpt>
      <trkpt lat="44.8725" lon="3.11453">
        <ele>956</ele>
        <time>2018-04-27T14:08:54Z</time>
      </trkpt>
      <trkpt lat="44.8725" lon="3.11453">
        <ele>956</ele>
        <time>2018-04-27T14:09:54Z</time>
      </trkpt>
      <trkpt lat="44.87272" lon="3.11451">
        <ele>955</ele>
        <time>2018-04-27T14:10:54Z</time>
      </trkpt>
      <trkpt lat="44.87297" lon="3.11434">
        <ele>952</ele>
        <time>2018-04-27T14:11:54Z</time>
      </trkpt>
      <trkpt lat="44.87306" lon="3.11434">
        <ele>952</ele>
        <time>2018-04-27T14:12:54Z</time>
      </trkpt>
      <trkpt lat="44.87335" lon="3.1145">
        <ele>952</ele>
        <time>2018-04-27T14:13:54Z</time>
      </trkpt>
      <trkpt lat="44.87364" lon="3.11457">
        <ele>950</ele>
        <time>2018-04-27T14:14:54Z</time>
      </trkpt>
      <trkpt lat="44.87403" lon="3.11448">
        <ele>946</ele>
        <time>2018-04-27T14:15:54Z</time>
      </trkpt>
      <trkpt lat="44.8743" lon="3.11435">
        <ele>942</ele>
        <time>2018-04-27T14:16:54Z</time>
      </trkpt>
      <trkpt lat="44.87457" lon="3.11414">
        <ele>937</ele>
        <time>2018-04-27T14:17:54Z</time>
      </trkpt>
      <trkpt lat="44.87457" lon="3.11414">
        <ele>937</ele>
        <time>2018-04-27T14:18:54Z</time>
      </trkpt>
      <trkpt lat="44.87453" lon="3.11387">
        <ele>938</ele>
        <time>2018-04-27T14:19:54Z</time>
      </trkpt>
      <trkpt lat="44.87435" lon="3.11293">
        <ele>941</ele>
        <time>2018-04-27T14:20:54Z</time>
      </trkpt>
      <trkpt lat="44.87429" lon="3.11271">
        <ele>941</ele>
        <time>2018-04-27T14:21:54Z</time>
      </trkpt>
      <trkpt lat="44.87414" lon="3.11237">
        <ele>940</ele>
        <time>2018-04-27T14:22:54Z</time>
      </trkpt>
      <trkpt lat="44.8741" lon="3.1122">
        <ele>940</ele>
        <time>2018-04-27T14:23:54Z</time>
      </trkpt>
      <trkpt lat="44.87406" lon="3.11194">
        <ele>939</ele>
        <time>2018-04-27T14:24:54Z</time>
      </trkpt>
      <trkpt lat="44.874" lon="3.1117">
        <ele>937</ele>
        <time>2018-04-27T14:25:54Z</time>
      </trkpt>
      <trkpt lat="44.8738" lon="3.11137">
        <ele>932</ele>
        <time>2018-04-27T14:26:54Z</time>
      </trkpt>
      <trkpt lat="44.87364" lon="3.11122">
        <ele>929</ele>
        <time>2018-04-27T14:27:54Z</time>
      </trkpt>
      <trkpt lat="44.87358" lon="3.11114">
        <ele>928</ele>
        <time>2018-04-27T14:28:54Z</time>
      </trkpt>
      <trkpt lat="44.87358" lon="3.11114">
        <ele>928</ele>
        <time>2018-04-27T14:29:54Z</time>
      </trkpt>
      <trkpt lat="44.87342" lon="3.1109">
        <ele>924</ele>
        <time>2018-04-27T14:30:54Z</time>
      </trkpt>
      <trkpt lat="44.87329" lon="3.11057">
        <ele>918</ele>
        <time>2018-04-27T14:31:54Z</time>
      </trkpt>
      <trkpt lat="44.87306" lon="3.11034">
        <ele>913</ele>
        <time>2018-04-27T14:32:54Z</time>
      </trkpt>
      <trkpt lat="44.87305" lon="3.11029">
        <ele>913</ele>
        <time>2018-04-27T14:33:54Z</time>
      </trkpt>
      <trkpt lat="44.87306" lon="3.11024">
        <ele>912</ele>
        <time>2018-04-27T14:34:54Z</time>
      </trkpt>
      <trkpt lat="44.87316" lon="3.11013">
        <ele>910</ele>
        <time>2018-04-27T14:35:54Z</time>
      </trkpt>
      <trkpt lat="44.87317" lon="3.11006">
        <ele>909</ele>
        <time>2018-04-27T14:36:54Z</time>
      </trkpt>
      <trkpt lat="44.87316" lon="3.11001">
        <ele>908</ele>
        <time>2018-04-27T14:37:54Z</time>
      </trkpt>
      <trkpt lat="44.87303" lon="3.10986">
        <ele>906</ele>
        <time>2018-04-27T14:38:54Z</time>
      </trkpt>
      <trkpt lat="44.87287" lon="3.10975">
        <ele>905</ele>
        <time>2018-04-27T14:39:54Z</time>
      </trkpt>
      <trkpt lat="44.87269" lon="3.1097">
        <ele>905</ele>
        <time>2018-04-27T14:40:54Z</time>
      </trkpt>
      <trkpt lat="44.87236" lon="3.10936">
        <ele>899</ele>
        <time>2018-04-27T14:41:54Z</time>
      </trkpt>
      <trkpt lat="44.87225" lon="3.10929">
        <ele>897</ele>
        <time>2018-04-27T14:42:54Z</time>
      </trkpt>
      <trkpt lat="44.87202" lon="3.10899">
        <ele>891</ele>
        <time>2018-04-27T14:43:54Z</time>
      </trkpt>
      <trkpt lat="44.8718" lon="3.10887">
        <ele>888</ele>
        <time>2018-04-27T14:44:54Z</time>
      </trkpt>
      <trkpt lat="44.87157" lon="3.10871">
        <ele>885</ele>
        <time>2018-04-27T14:45:54Z</time>
      </trkpt>
      <trkpt lat="44.87141" lon="3.1085">
        <ele>881</ele>
        <time>2018-04-27T14:46:54Z</time>
      </trkpt>
      <trkpt lat="44.87133" lon="3.1082">
        <ele>879</ele>
        <time>2018-04-27T14:47:54Z</time>
      </trkpt>
      <trkpt lat="44.87133" lon="3.1082">
        <ele>879</ele>
        <time>2018-04-27T14:48:54Z</time>
      </trkpt>
      <trkpt lat="44.87129" lon="3.10807">
        <ele>877</ele>
        <time>2018-04-27T14:49:54Z</time>
      </trkpt>
      <trkpt lat="44.87128" lon="3.10797">
        <ele>876</ele>
        <time>2018-04-27T14:50:54Z</time>
      </trkpt>
      <trkpt lat="44.87124" lon="3.10787">
        <ele>874</ele>
        <time>2018-04-27T14:51:54Z</time>
      </trkpt>
      <trkpt lat="44.8712" lon="3.10765">
        <ele>872</ele>
        <time>2018-04-27T14:52:54Z</time>
      </trkpt>
      <trkpt lat="44.87119" lon="3.10744">
        <ele>869</ele>
        <time>2018-04-27T14:53:54Z</time>
      </trkpt>
      <trkpt lat="44.87121" lon="3.10724">
        <ele>866</ele>
        <time>2018-04-27T14:54:54Z</time>
      </trkpt>
      <trkpt lat="44.87128" lon="3.10703">
        <ele>865</ele>
        <time>2018-04-27T14:55:54Z</time>
      </trkpt>
      <trkpt lat="44.87131" lon="3.1068">
        <ele>862</ele>
        <time>2018-04-27T14:56:54Z</time>
      </trkpt>
      <trkpt lat="44.87132" lon="3.10642">
        <ele>856</ele>
        <time>2018-04-27T14:57:54Z</time>
      </trkpt>
      <trkpt lat="44.87129" lon="3.10591">
        <ele>848</ele>
        <time>2018-04-27T14:58:54Z</time>
      </trkpt>
      <trkpt lat="44.87121" lon="3.10569">
        <ele>843</ele>
        <time>2018-04-27T14:59:54Z</time>
      </trkpt>
      <trkpt lat="44.87113" lon="3.10552">
        <ele>838</ele>
        <time>2018-04-27T15:00:54Z</time>
      </trkpt>
      <trkpt lat="44.87115" lon="3.10541">
        <ele>837</ele>
        <time>2018-04-27T15:01:54Z</time>
      </trkpt>
      <trkpt lat="44.87129" lon="3.10524">
        <ele>835</ele>
        <time>2018-04-27T15:02:54Z</time>
      </trkpt>
      <trkpt lat="44.87129" lon="3.10524">
        <ele>835</ele>
        <time>2018-04-27T15:03:54Z</time>
      </trkpt>
      <trkpt lat="44.87136" lon="3.10523">
        <ele>835</ele>
        <time>2018-04-27T15:04:54Z</time>
      </trkpt>
      <trkpt lat="44.87157" lon="3.10533">
        <ele>840</ele>
        <time>2018-04-27T15:05:54Z</time>
      </trkpt>
      <trkpt lat="44.87179" lon="3.10551">
        <ele>843</ele>
        <time>2018-04-27T15:06:54Z</time>
      </trkpt>
      <trkpt lat="44.87184" lon="3.10553">
        <ele>842</ele>
        <time>2018-04-27T15:07:54Z</time>
      </trkpt>
      <trkpt lat="44.8719" lon="3.10551">
        <ele>840</ele>
        <time>2018-04-27T15:08:54Z</time>
      </trkpt>
      <trkpt lat="44.87191" lon="3.10537">
        <ele>836</ele>
        <time>2018-04-27T15:09:54Z</time>
      </trkpt>
      <trkpt lat="44.87189" lon="3.10526">
        <ele>834</ele>
        <time>2018-04-27T15:10:54Z</time>
      </trkpt>
      <trkpt lat="44.87177" lon="3.10504">
        <ele>831</ele>
        <time>2018-04-27T15:11:54Z</time>
      </trkpt>
      <trkpt lat="44.87162" lon="3.10489">
        <ele>828</ele>
        <time>2018-04-27T15:12:54Z</time>
      </trkpt>
      <trkpt lat="44.8716" lon="3.10485">
        <ele>826</ele>
        <time>2018-04-27T15:13:54Z</time>
      </trkpt>
      <trkpt lat="44.8716" lon="3.1048">
        <ele>824</ele>
        <time>2018-04-27T15:14:54Z</time>
      </trkpt>
      <trkpt lat="44.87164" lon="3.10478">
        <ele>824</ele>
        <time>2018-04-27T15:15:54Z</time>
      </trkpt>
      <trkpt lat="44.87198" lon="3.10489">
        <ele>821</ele>
        <time>2018-04-27T15:16:54Z</time>
      </trkpt>
      <trkpt lat="44.87215" lon="3.10503">
        <ele>821</ele>
        <time>2018-04-27T15:17:54Z</time>
      </trkpt>
      <trkpt lat="44.87243" lon="3.10531">
        <ele>823</ele>
        <time>2018-04-27T15:18:54Z</time>
      </trkpt>
      <trkpt lat="44.87254" lon="3.10538">
        <ele>822</ele>
        <time>2018-04-27T15:19:54Z</time>
      </trkpt>
      <trkpt lat="44.87327" lon="3.10566">
        <ele>809</ele>
        <time>2018-04-27T15:20:54Z</time>
      </trkpt>
      <trkpt lat="44.87327" lon="3.10566">
        <ele>809</ele>
        <time>2018-04-27T15:21:54Z</time>
      </trkpt>
      <trkpt lat="44.87382" lon="3.10586">
        <ele>798</ele>
        <time>2018-04-27T15:22:54Z</time>
      </trkpt>
      <trkpt lat="44.87396" lon="3.10596">
        <ele>796</ele>
        <time>2018-04-27T15:23:54Z</time>
      </trkpt>
      <trkpt lat="44.87407" lon="3.10606">
        <ele>794</ele>
        <time>2018-04-27T15:24:54Z</time>
      </trkpt>
      <trkpt lat="44.87412" lon="3.10616">
        <ele>795</ele>
        <time>2018-04-27T15:25:54Z</time>
      </trkpt>
      <trkpt lat="44.87421" lon="3.10641">
        <ele>797</ele>
        <time>2018-04-27T15:26:54Z</time>
      </trkpt>
      <trkpt lat="44.87425" lon="3.10647">
        <ele>798</ele>
        <time>2018-04-27T15:27:54Z</time>
      </trkpt>
      <trkpt lat="44.87429" lon="3.10649">
        <ele>797</ele>
        <time>2018-04-27T15:28:54Z</time>
      </trkpt>
      <trkpt lat="44.87434" lon="3.10648">
        <ele>795</ele>
        <time>2018-04-27T15:29:54Z</time>
      </trkpt>
      <trkpt lat="44.87452" lon="3.10637">
        <ele>787</ele>
        <time>2018-04-27T15:30:54Z</time>
      </trkpt>
      <trkpt lat="44.8746" lon="3.10637">
        <ele>784</ele>
        <time>2018-04-27T15:31:54Z</time>
      </trkpt>
      <trkpt lat="44.87469" lon="3.1064">
        <ele>782</ele>
        <time>2018-04-27T15:32:54Z</time>
      </trkpt>
      <trkpt lat="44.8752" lon="3.10672">
        <ele>775</ele>
        <time>2018-04-27T15:33:54Z</time>
      </trkpt>
      <trkpt lat="44.87548" lon="3.10683">
        <ele>771</ele>
        <time>2018-04-27T15:34:54Z</time>
      </trkpt>
      <trkpt lat="44.87548" lon="3.10683">
        <ele>771</ele>
        <time>2018-04-27T15:35:54Z</time>
      </trkpt>
      <trkpt lat="44.87594" lon="3.10696">
        <ele>763</ele>
        <time>2018-04-27T15:36:54Z</time>
      </trkpt>
      <trkpt lat="44.87598" lon="3.10695">
        <ele>761</ele>
        <time>2018-04-27T15:37:54Z</time>
      </trkpt>
      <trkpt lat="44.87596" lon="3.10691">
        <ele>761</ele>
        <time>2018-04-27T15:38:54Z</time>
      </trkpt>
      <trkpt lat="44.87596" lon="3.10691">
        <ele>761</ele>
        <time>2018-04-27T15:39:54Z</time>
      </trkpt>
      <trkpt lat="44.87592" lon="3.10685">
        <ele>760</ele>
        <time>2018-04-27T15:40:54Z</time>
      </trkpt>
      <trkpt lat="44.87566" lon="3.10658">
        <ele>759</ele>
        <time>2018-04-27T15:41:54Z</time>
      </trkpt>
      <trkpt lat="44.87566" lon="3.10658">
        <ele>759</ele>
        <time>2018-04-27T15:42:54Z</time>
      </trkpt>
      <trkpt lat="44.87557" lon="3.10649">
        <ele>760</ele>
        <time>2018-04-27T15:43:54Z</time>
      </trkpt>
      <trkpt lat="44.87552" lon="3.10633">
        <ele>758</ele>
        <time>2018-04-27T15:44:54Z</time>
      </trkpt>
      <trkpt lat="44.87535" lon="3.1062">
        <ele>759</ele>
        <time>2018-04-27T15:45:54Z</time>
      </trkpt>
      <trkpt lat="44.87514" lon="3.1059">
        <ele>757</ele>
        <time>2018-04-27T15:46:54Z</time>
      </trkpt>
      <trkpt lat="44.87514" lon="3.1059">
        <ele>757</ele>
        <time>2018-04-27T15:47:54Z</time>
      </trkpt>
      <trkpt lat="44.87503" lon="3.1058">
        <ele>758</ele>
        <time>2018-04-27T15:48:54Z</time>
      </trkpt>
      <trkpt lat="44.87489" lon="3.10574">
        <ele>761</ele>
        <time>2018-04-27T15:49:54Z</time>
      </trkpt>
      <trkpt lat="44.87478" lon="3.10576">
        <ele>764</ele>
        <time>2018-04-27T15:50:54Z</time>
      </trkpt>
      <trkpt lat="44.87472" lon="3.10573">
        <ele>766</ele>
        <time>2018-04-27T15:51:54Z</time>
      </trkpt>
      <trkpt lat="44.87469" lon="3.10567">
        <ele>765</ele>
        <time>2018-04-27T15:52:54Z</time>
      </trkpt>
      <trkpt lat="44.87466" lon="3.10555">
        <ele>764</ele>
        <time>2018-04-27T15:53:54Z</time>
      </trkpt>
      <trkpt lat="44.87462" lon="3.10547">
        <ele>763</ele>
        <time>2018-04-27T15:54:54Z</time>
      </trkpt>
      <trkpt lat="44.87429" lon="3.10513">
        <ele>761</ele>
        <time>2018-04-27T15:55:54Z</time>
      </trkpt>
      <trkpt lat="44.87373" lon="3.10477">
        <ele>765</ele>
        <time>2018-04-27T15:56:54Z</time>
      </trkpt>
      <trkpt lat="44.87373" lon="3.10477">
        <ele>765</ele>
        <time>2018-04-27T15:57:54Z</time>
      </trkpt>
      <trkpt lat="44.87361" lon="3.10469">
        <ele>766</ele>
        <time>2018-04-27T15:58:54Z</time>
      </trkpt>
      <trkpt lat="44.87339" lon="3.10446">
        <ele>764</ele>
        <time>2018-04-27T15:59:54Z</time>
      </trkpt>
      <trkpt lat="44.87315" lon="3.10437">
        <ele>768</ele>
        <time>2018-04-27T16:00:54Z</time>
      </trkpt>
      <trkpt lat="44.87298" lon="3.10413">
        <ele>767</ele>
        <time>2018-04-27T16:01:54Z</time>
      </trkpt>
      <trkpt lat="44.87288" lon="3.104">
        <ele>766</ele>
        <time>2018-04-27T16:02:54Z</time>
      </trkpt>
      <trkpt lat="44.87278" lon="3.10393">
        <ele>767</ele>
        <time>2018-04-27T16:03:54Z</time>
      </trkpt>
      <trkpt lat="44.87248" lon="3.10352">
        <ele>760</ele>
        <time>2018-04-27T16:04:54Z</time>
      </trkpt>
      <trkpt lat="44.87248" lon="3.10352">
        <ele>760</ele>
        <time>2018-04-27T16:05:54Z</time>
      </trkpt>
      <trkpt lat="44.87245" lon="3.10346">
        <ele>758</ele>
        <time>2018-04-27T16:06:54Z</time>
      </trkpt>
      <trkpt lat="44.87227" lon="3.10332">
        <ele>757</ele>
        <time>2018-04-27T16:07:54Z</time>
      </trkpt>
      <trkpt lat="44.87221" lon="3.10324">
        <ele>757</ele>
        <time>2018-04-27T16:08:54Z</time>
      </trkpt>
      <trkpt lat="44.87201" lon="3.10312">
        <ele>759</ele>
        <time>2018-04-27T16:09:54Z</time>
      </trkpt>
      <trkpt lat="44.87171" lon="3.10301">
        <ele>761</ele>
        <time>2018-04-27T16:10:54Z</time>
      </trkpt>
      <trkpt lat="44.87157" lon="3.103">
        <ele>761</ele>
        <time>2018-04-27T16:11:54Z</time>
      </trkpt>
      <trkpt lat="44.8715" lon="3.10297">
        <ele>761</ele>
        <time>2018-04-27T16:12:54Z</time>
      </trkpt>
      <trkpt lat="44.87109" lon="3.10297">
        <ele>760</ele>
        <time>2018-04-27T16:13:54Z</time>
      </trkpt>
      <trkpt lat="44.871" lon="3.103">
        <ele>761</ele>
        <time>2018-04-27T16:14:54Z</time>
      </trkpt>
      <trkpt lat="44.87092" lon="3.10312">
        <ele>761</ele>
        <time>2018-04-27T16:15:54Z</time>
      </trkpt>
      <trkpt lat="44.87068" lon="3.10325">
        <ele>761</ele>
        <time>2018-04-27T16:16:54Z</time>
      </trkpt>
      <trkpt lat="44.87068" lon="3.10325">
        <ele>761</ele>
        <time>2018-04-27T16:17:54Z</time>
      </trkpt>
      <trkpt lat="44.87056" lon="3.10332">
        <ele>760</ele>
        <time>2018-04-27T16:18:54Z</time>
      </trkpt>
      <trkpt lat="44.87027" lon="3.10358">
        <ele>763</ele>
        <time>2018-04-27T16:19:54Z</time>
      </trkpt>
      <trkpt lat="44.87016" lon="3.10371">
        <ele>764</ele>
        <time>2018-04-27T16:20:54Z</time>
      </trkpt>
      <trkpt lat="44.87004" lon="3.104">
        <ele>766</ele>
        <time>2018-04-27T16:21:54Z</time>
      </trkpt>
      <trkpt lat="44.86989" lon="3.10411">
        <ele>767</ele>
        <time>2018-04-27T16:22:54Z</time>
      </trkpt>
      <trkpt lat="44.86977" lon="3.10432">
        <ele>768</ele>
        <time>2018-04-27T16:23:54Z</time>
      </trkpt>
      <trkpt lat="44.86977" lon="3.10441">
        <ele>770</ele>
        <time>2018-04-27T16:24:54Z</time>
      </trkpt>
      <trkpt lat="44.86978" lon="3.10449">
        <ele>771</ele>
        <time>2018-04-27T16:25:54Z</time>
      </trkpt>
      <trkpt lat="44.86966" lon="3.10467">
        <ele>770</ele>
        <time>2018-04-27T16:26:54Z</time>
      </trkpt>
      <trkpt lat="44.8696" lon="3.10487">
        <ele>769</ele>
        <time>2018-04-27T16:27:54Z</time>
      </trkpt>
      <trkpt lat="44.86947" lon="3.10511">
        <ele>766</ele>
        <time>2018-04-27T16:28:54Z</time>
      </trkpt>
      <trkpt lat="44.86942" lon="3.10514">
        <ele>764</ele>
        <time>2018-04-27T16:29:54Z</time>
      </trkpt>
      <trkpt lat="44.86931" lon="3.10516">
        <ele>760</ele>
        <time>2018-04-27T16:30:54Z</time>
      </trkpt>
      <trkpt lat="44.86921" lon="3.10524">
        <ele>757</ele>
        <time>2018-04-27T16:31:54Z</time>
      </trkpt>
      <trkpt lat="44.86916" lon="3.10534">
        <ele>756</ele>
        <time>2018-04-27T16:32:54Z</time>
      </trkpt>
      <trkpt lat="44.86914" lon="3.10543">
        <ele>757</ele>
        <time>2018-04-27T16:33:54Z</time>
      </trkpt>
      <trkpt lat="44.86916" lon="3.10549">
        <ele>758</ele>
        <time>2018-04-27T16:34:54Z</time>
      </trkpt>
      <trkpt lat="44.86916" lon="3.10553">
        <ele>758</ele>
        <time>2018-04-27T16:35:54Z</time>
      </trkpt>
      <trkpt lat="44.86916" lon="3.10553">
        <ele>758</ele>
        <time>2018-04-27T16:36:54Z</time>
      </trkpt>
      <trkpt lat="44.86916" lon="3.10556">
        <ele>759</ele>
        <time>2018-04-27T16:37:54Z</time>
      </trkpt>
      <trkpt lat="44.86907" lon="3.10573">
        <ele>760</ele>
        <time>2018-04-27T16:38:54Z</time>
      </trkpt>
      <trkpt lat="44.86855" lon="3.10628">
        <ele>759</ele>
        <time>2018-04-27T16:39:54Z</time>
      </trkpt>
      <trkpt lat="44.86827" lon="3.10661">
        <ele>759</ele>
        <time>2018-04-27T16:40:54Z</time>
      </trkpt>
      <trkpt lat="44.86814" lon="3.10685">
        <ele>762</ele>
        <time>2018-04-27T16:41:54Z</time>
      </trkpt>
      <trkpt lat="44.86814" lon="3.10685">
        <ele>762</ele>
        <time>2018-04-27T16:42:54Z</time>
      </trkpt>
      <trkpt lat="44.86812" lon="3.10688">
        <ele>762</ele>
        <time>2018-04-27T16:43:54Z</time>
      </trkpt>
      <trkpt lat="44.86803" lon="3.10694">
        <ele>762</ele>
        <time>2018-04-27T16:44:54Z</time>
      </trkpt>
      <trkpt lat="44.86783" lon="3.10743">
        <ele>764</ele>
        <time>2018-04-27T16:45:54Z</time>
      </trkpt>
      <trkpt lat="44.86777" lon="3.10753">
        <ele>763</ele>
        <time>2018-04-27T16:46:54Z</time>
      </trkpt>
      <trkpt lat="44.86771" lon="3.10759">
        <ele>761</ele>
        <time>2018-04-27T16:47:54Z</time>
      </trkpt>
      <trkpt lat="44.86765" lon="3.10761">
        <ele>760</ele>
        <time>2018-04-27T16:48:54Z</time>
      </trkpt>
      <trkpt lat="44.86727" lon="3.10745">
        <ele>757</ele>
        <time>2018-04-27T16:49:54Z</time>
      </trkpt>
      <trkpt lat="44.86723" lon="3.10741">
        <ele>758</ele>
        <time>2018-04-27T16:50:54Z</time>
      </trkpt>
      <trkpt lat="44.8672" lon="3.10723">
        <ele>758</ele>
        <time>2018-04-27T16:51:54Z</time>
      </trkpt>
      <trkpt lat="44.8672" lon="3.10723">
        <ele>758</ele>
        <time>2018-04-27T16:52:54Z</time>
      </trkpt>
      <trkpt lat="44.8672" lon="3.10719">
        <ele>758</ele>
        <time>2018-04-27T16:53:54Z</time>
      </trkpt>
      <trkpt lat="44.86724" lon="3.10693">
        <ele>758</ele>
        <time>2018-04-27T16:54:54Z</time>
      </trkpt>
      <trkpt lat="44.86734" lon="3.1066">
        <ele>758</ele>
        <time>2018-04-27T16:55:54Z</time>
      </trkpt>
      <trkpt lat="44.86747" lon="3.10631">
        <ele>761</ele>
        <time>2018-04-27T16:56:54Z</time>
      </trkpt>
      <trkpt lat="44.86756" lon="3.10592">
        <ele>765</ele>
        <time>2018-04-27T16:57:54Z</time>
      </trkpt>
      <trkpt lat="44.86789" lon="3.10544">
        <ele>768</ele>
        <time>2018-04-27T16:58:54Z</time>
      </trkpt>
      <trkpt lat="44.86819" lon="3.10478">
        <ele>775</ele>
        <time>2018-04-27T16:59:54Z</time>
      </trkpt>
      <trkpt lat="44.86827" lon="3.10457">
        <ele>779</ele>
        <time>2018-04-27T17:00:54Z</time>
      </trkpt>
      <trkpt lat="44.86827" lon="3.10457">
        <ele>779</ele>
        <time>2018-04-27T17:01:54Z</time>
      </trkpt>
      <trkpt lat="44.86829" lon="3.1045">
        <ele>780</ele>
        <time>2018-04-27T17:02:54Z</time>
      </trkpt>
      <trkpt lat="44.86816" lon="3.1046">
        <ele>782</ele>
        <time>2018-04-27T17:03:54Z</time>
      </trkpt>
      <trkpt lat="44.86806" lon="3.10476">
        <ele>780</ele>
        <time>2018-04-27T17:04:54Z</time>
      </trkpt>
      <trkpt lat="44.86788" lon="3.10495">
        <ele>780</ele>
        <time>2018-04-27T17:05:54Z</time>
      </trkpt>
      <trkpt lat="44.86785" lon="3.10509">
        <ele>777</ele>
        <time>2018-04-27T17:06:54Z</time>
      </trkpt>
      <trkpt lat="44.86756" lon="3.10541">
        <ele>778</ele>
        <time>2018-04-27T17:07:54Z</time>
      </trkpt>
      <trkpt lat="44.86752" lon="3.10543">
        <ele>778</ele>
        <time>2018-04-27T17:08:54Z</time>
      </trkpt>
      <trkpt lat="44.86748" lon="3.1054">
        <ele>779</ele>
        <time>2018-04-27T17:09:54Z</time>
      </trkpt>
      <trkpt lat="44.86748" lon="3.1054">
        <ele>779</ele>
        <time>2018-04-27T17:10:54Z</time>
      </trkpt>
      <trkpt lat="44.86744" lon="3.10536">
        <ele>780</ele>
        <time>2018-04-27T17:11:54Z</time>
      </trkpt>
      <trkpt lat="44.86738" lon="3.10526">
        <ele>781</ele>
        <time>2018-04-27T17:12:54Z</time>
      </trkpt>
      <trkpt lat="44.86722" lon="3.10493">
        <ele>786</ele>
        <time>2018-04-27T17:13:54Z</time>
      </trkpt>
      <trkpt lat="44.86707" lon="3.10474">
        <ele>788</ele>
        <time>2018-04-27T17:14:54Z</time>
      </trkpt>
      <trkpt lat="44.86682" lon="3.10453">
        <ele>788</ele>
        <time>2018-04-27T17:15:54Z</time>
      </trkpt>
      <trkpt lat="44.86677" lon="3.10444">
        <ele>789</ele>
        <time>2018-04-27T17:16:54Z</time>
      </trkpt>
      <trkpt lat="44.86668" lon="3.10434">
        <ele>790</ele>
        <time>2018-04-27T17:17:54Z</time>
      </trkpt>
      <trkpt lat="44.86647" lon="3.10419">
        <ele>788</ele>
        <time>2018-04-27T17:18:54Z</time>
      </trkpt>
      <trkpt lat="44.86631" lon="3.10404">
        <ele>788</ele>
        <time>2018-04-27T17:19:54Z</time>
      </trkpt>
      <trkpt lat="44.86609" lon="3.1037">
        <ele>791</ele>
        <time>2018-04-27T17:20:54Z</time>
      </trkpt>
      <trkpt lat="44.86596" lon="3.10345">
        <ele>794</ele>
        <time>2018-04-27T17:21:54Z</time>
      </trkpt>
      <trkpt lat="44.86592" lon="3.10341">
        <ele>794</ele>
        <time>2018-04-27T17:22:54Z</time>
      </trkpt>
      <trkpt lat="44.86592" lon="3.10341">
        <ele>794</ele>
        <time>2018-04-27T17:23:54Z</time>
      </trkpt>
      <trkpt lat="44.86585" lon="3.1034">
        <ele>793</ele>
        <time>2018-04-27T17:24:54Z</time>
      </trkpt>
      <trkpt lat="44.86576" lon="3.10334">
        <ele>793</ele>
        <time>2018-04-27T17:25:54Z</time>
      </trkpt>
      <trkpt lat="44.86575" lon="3.10316">
        <ele>801</ele>
        <time>2018-04-27T17:26:54Z</time>
      </trkpt>
      <trkpt lat="44.86562" lon="3.10307">
        <ele>803</ele>
        <time>2018-04-27T17:27:54Z</time>
      </trkpt>
      <trkpt lat="44.86553" lon="3.10299">
        <ele>805</ele>
        <time>2018-04-27T17:28:54Z</time>
      </trkpt>
      <trkpt lat="44.86546" lon="3.10295">
        <ele>806</ele>
        <time>2018-04-27T17:29:54Z</time>
      </trkpt>
      <trkpt lat="44.86542" lon="3.10294">
        <ele>806</ele>
        <time>2018-04-27T17:30:54Z</time>
      </trkpt>
      <trkpt lat="44.86534" lon="3.10287">
        <ele>808</ele>
        <time>2018-04-27T17:31:54Z</time>
      </trkpt>
      <trkpt lat="44.86531" lon="3.10283">
        <ele>809</ele>
        <time>2018-04-27T17:32:54Z</time>
      </trkpt>
      <trkpt lat="44.86531" lon="3.10279">
        <ele>810</ele>
        <time>2018-04-27T17:33:54Z</time>
      </trkpt>
      <trkpt lat="44.86525" lon="3.10263">
        <ele>816</ele>
        <time>2018-04-27T17:34:54Z</time>
      </trkpt>
      <trkpt lat="44.86519" lon="3.10259">
        <ele>817</ele>
        <time>2018-04-27T17:35:54Z</time>
      </trkpt>
      <trkpt lat="44.86514" lon="3.10264">
        <ele>814</ele>
        <time>2018-04-27T17:36:54Z</time>
      </trkpt>
      <trkpt lat="44.86501" lon="3.10266">
        <ele>811</ele>
        <time>2018-04-27T17:37:54Z</time>
      </trkpt>
      <trkpt lat="44.86482" lon="3.10251">
        <ele>815</ele>
        <time>2018-04-27T17:38:54Z</time>
      </trkpt>
      <trkpt lat="44.86473" lon="3.10233">
        <ele>821</ele>
        <time>2018-04-27T17:39:54Z</time>
      </trkpt>
      <trkpt lat="44.86463" lon="3.10225">
        <ele>823</ele>
        <time>2018-04-27T17:40:54Z</time>
      </trkpt>
      <trkpt lat="44.86464" lon="3.10218">
        <ele>826</ele>
        <time>2018-04-27T17:41:54Z</time>
      </trkpt>
      <trkpt lat="44.86459" lon="3.10214">
        <ele>827</ele>
        <time>2018-04-27T17:42:54Z</time>
      </trkpt>
      <trkpt lat="44.86452" lon="3.10214">
        <ele>826</ele>
        <time>2018-04-27T17:43:54Z</time>
      </trkpt>
      <trkpt lat="44.86448" lon="3.10208">
        <ele>828</ele>
        <time>2018-04-27T17:44:54Z</time>
      </trkpt>
      <trkpt lat="44.86448" lon="3.10208">
        <ele>828</ele>
        <time>2018-04-27T17:45:54Z</time>
      </trkpt>
      <trkpt lat="44.86445" lon="3.102">
        <ele>830</ele>
        <time>2018-04-27T17:46:54Z</time>
      </trkpt>
      <trkpt lat="44.86448" lon="3.10196">
        <ele>832</ele>
        <time>2018-04-27T17:47:54Z</time>
      </trkpt>
      <trkpt lat="44.86455" lon="3.10202">
        <ele>831</ele>
        <time>2018-04-27T17:48:54Z</time>
      </trkpt>
      <trkpt lat="44.86468" lon="3.10203">
        <ele>832</ele>
        <time>2018-04-27T17:49:54Z</time>
      </trkpt>
      <trkpt lat="44.86486" lon="3.102">
        <ele>835</ele>
        <time>2018-04-27T17:50:54Z</time>
      </trkpt>
      <trkpt lat="44.86489" lon="3.10205">
        <ele>834</ele>
        <time>2018-04-27T17:51:54Z</time>
      </trkpt>
      <trkpt lat="44.86512" lon="3.10206">
        <ele>836</ele>
        <time>2018-04-27T17:52:54Z</time>
      </trkpt>
      <trkpt lat="44.86517" lon="3.1021">
        <ele>836</ele>
        <time>2018-04-27T17:53:54Z</time>
      </trkpt>
      <trkpt lat="44.86532" lon="3.10208">
        <ele>839</ele>
        <time>2018-04-27T17:54:54Z</time>
      </trkpt>
      <trkpt lat="44.86535" lon="3.10216">
        <ele>836</ele>
        <time>2018-04-27T17:55:54Z</time>
      </trkpt>
      <trkpt lat="44.86544" lon="3.10205">
        <ele>842</ele>
        <time>2018-04-27T17:56:54Z</time>
      </trkpt>
      <trkpt lat="44.86571" lon="3.10199">
        <ele>848</ele>
        <time>2018-04-27T17:57:54Z</time>
      </trkpt>
      <trkpt lat="44.86578" lon="3.10201">
        <ele>848</ele>
        <time>2018-04-27T17:58:54Z</time>
      </trkpt>
      <trkpt lat="44.86581" lon="3.10205">
        <ele>847</ele>
        <time>2018-04-27T17:59:54Z</time>
      </trkpt>
      <trkpt lat="44.86591" lon="3.10206">
        <ele>849</ele>
        <time>2018-04-27T18:00:54Z</time>
      </trkpt>
      <trkpt lat="44.86597" lon="3.10209">
        <ele>849</ele>
        <time>2018-04-27T18:01:54Z</time>
      </trkpt>
      <trkpt lat="44.86597" lon="3.10209">
        <ele>849</ele>
        <time>2018-04-27T18:02:54Z</time>
      </trkpt>
      <trkpt lat="44.86602" lon="3.10208">
        <ele>850</ele>
        <time>2018-04-27T18:03:54Z</time>
      </trkpt>
      <trkpt lat="44.86597" lon="3.10201">
        <ele>852</ele>
        <time>2018-04-27T18:04:54Z</time>
      </trkpt>
      <trkpt lat="44.8659" lon="3.10197">
        <ele>852</ele>
        <time>2018-04-27T18:05:54Z</time>
      </trkpt>
      <trkpt lat="44.86575" lon="3.10182">
        <ele>855</ele>
        <time>2018-04-27T18:06:54Z</time>
      </trkpt>
      <trkpt lat="44.86559" lon="3.10174">
        <ele>856</ele>
        <time>2018-04-27T18:07:54Z</time>
      </trkpt>
      <trkpt lat="44.86537" lon="3.10158">
        <ele>859</ele>
        <time>2018-04-27T18:08:54Z</time>
      </trkpt>
      <trkpt lat="44.86515" lon="3.10137">
        <ele>863</ele>
        <time>2018-04-27T18:09:54Z</time>
      </trkpt>
      <trkpt lat="44.86501" lon="3.10129">
        <ele>864</ele>
        <time>2018-04-27T18:10:54Z</time>
      </trkpt>
      <trkpt lat="44.86491" lon="3.10119">
        <ele>867</ele>
        <time>2018-04-27T18:11:54Z</time>
      </trkpt>
      <trkpt lat="44.86491" lon="3.10119">
        <ele>867</ele>
        <time>2018-04-27T18:12:54Z</time>
      </trkpt>
      <trkpt lat="44.86488" lon="3.10115">
        <ele>868</ele>
        <time>2018-04-27T18:13:54Z</time>
      </trkpt>
      <trkpt lat="44.86487" lon="3.10111">
        <ele>869</ele>
        <time>2018-04-27T18:14:54Z</time>
      </trkpt>
      <trkpt lat="44.86479" lon="3.10104">
        <ele>871</ele>
        <time>2018-04-27T18:15:54Z</time>
      </trkpt>
      <trkpt lat="44.86466" lon="3.1008">
        <ele>878</ele>
        <time>2018-04-27T18:16:54Z</time>
      </trkpt>
      <trkpt lat="44.86467" lon="3.09994">
        <ele>908</ele>
        <time>2018-04-27T18:17:54Z</time>
      </trkpt>
      <trkpt lat="44.86467" lon="3.09994">
        <ele>908</ele>
        <time>2018-04-27T18:18:54Z</time>
      </trkpt>
      <trkpt lat="44.86467" lon="3.09987">
        <ele>909</ele>
        <time>2018-04-27T18:19:54Z</time>
      </trkpt>
      <trkpt lat="44.86459" lon="3.09963">
        <ele>912</ele>
        <time>2018-04-27T18:20:54Z</time>
      </trkpt>
      <trkpt lat="44.86455" lon="3.09956">
        <ele>912</ele>
        <time>2018-04-27T18:21:54Z</time>
      </trkpt>
      <trkpt lat="44.8645" lon="3.09954">
        <ele>912</ele>
        <time>2018-04-27T18:22:54Z</time>
      </trkpt>
      <trkpt lat="44.86444" lon="3.09948">
        <ele>912</ele>
        <time>2018-04-27T18:23:54Z</time>
      </trkpt>
      <trkpt lat="44.86442" lon="3.09954">
        <ele>910</ele>
        <time>2018-04-27T18:24:54Z</time>
      </trkpt>
      <trkpt lat="44.86439" lon="3.09953">
        <ele>910</ele>
        <time>2018-04-27T18:25:54Z</time>
      </trkpt>
      <trkpt lat="44.86434" lon="3.09955">
        <ele>909</ele>
        <time>2018-04-27T18:26:54Z</time>
      </trkpt>
      <trkpt lat="44.86434" lon="3.09955">
        <ele>909</ele>
        <time>2018-04-27T18:27:54Z</time>
      </trkpt>
      <trkpt lat="44.86428" lon="3.09959">
        <ele>907</ele>
        <time>2018-04-27T18:28:54Z</time>
      </trkpt>
      <trkpt lat="44.86424" lon="3.09956">
        <ele>907</ele>
        <time>2018-04-27T18:29:54Z</time>
      </trkpt>
      <trkpt lat="44.86423" lon="3.09965">
        <ele>905</ele>
        <time>2018-04-27T18:30:54Z</time>
      </trkpt>
      <trkpt lat="44.86404" lon="3.09988">
        <ele>900</ele>
        <time>2018-04-27T18:31:54Z</time>
      </trkpt>
      <trkpt lat="44.86392" lon="3.10015">
        <ele>894</ele>
        <time>2018-04-27T18:32:54Z</time>
      </trkpt>
      <trkpt lat="44.86385" lon="3.10037">
        <ele>886</ele>
        <time>2018-04-27T18:33:54Z</time>
      </trkpt>
      <trkpt lat="44.86373" lon="3.10049">
        <ele>883</ele>
        <time>2018-04-27T18:34:54Z</time>
      </trkpt>
      <trkpt lat="44.86363" lon="3.10064">
        <ele>877</ele>
        <time>2018-04-27T18:35:54Z</time>
      </trkpt>
      <trkpt lat="44.86363" lon="3.10064">
        <ele>877</ele>
        <time>2018-04-27T18:36:54Z</time>
      </trkpt>
      <trkpt lat="44.8636" lon="3.10068">
        <ele>876</ele>
        <time>2018-04-27T18:37:54Z</time>
      </trkpt>
      <trkpt lat="44.86334" lon="3.10065">
        <ele>878</ele>
        <time>2018-04-27T18:38:54Z</time>
      </trkpt>
      <trkpt lat="44.86296" lon="3.10055">
        <ele>874</ele>
        <time>2018-04-27T18:39:54Z</time>
      </trkpt>
      <trkpt lat="44.86293" lon="3.10057">
        <ele>873</ele>
        <time>2018-04-27T18:40:54Z</time>
      </trkpt>
      <trkpt lat="44.86263" lon="3.10037">
        <ele>875</ele>
        <time>2018-04-27T18:41:54Z</time>
      </trkpt>
      <trkpt lat="44.86254" lon="3.10027">
        <ele>876</ele>
        <time>2018-04-27T18:42:54Z</time>
      </trkpt>
      <trkpt lat="44.86244" lon="3.10025">
        <ele>874</ele>
        <time>2018-04-27T18:43:54Z</time>
      </trkpt>
      <trkpt lat="44.86206" lon="3.10024">
        <ele>860</ele>
        <time>2018-04-27T18:44:54Z</time>
      </trkpt>
      <trkpt lat="44.86199" lon="3.10021">
        <ele>859</ele>
        <time>2018-04-27T18:45:54Z</time>
      </trkpt>
      <trkpt lat="44.86195" lon="3.10008">
        <ele>861</ele>
        <time>2018-04-27T18:46:54Z</time>
      </trkpt>
      <trkpt lat="44.86198" lon="3.09998">
        <ele>865</ele>
        <time>2018-04-27T18:47:54Z</time>
      </trkpt>
      <trkpt lat="44.86199" lon="3.09988">
        <ele>870</ele>
        <time>2018-04-27T18:48:54Z</time>
      </trkpt>
      <trkpt lat="44.86196" lon="3.09975">
        <ele>874</ele>
        <time>2018-04-27T18:49:54Z</time>
      </trkpt>
      <trkpt lat="44.86191" lon="3.09964">
        <ele>876</ele>
        <time>2018-04-27T18:50:54Z</time>
      </trkpt>
      <trkpt lat="44.86182" lon="3.09955">
        <ele>876</ele>
        <time>2018-04-27T18:51:54Z</time>
      </trkpt>
      <trkpt lat="44.86177" lon="3.09946">
        <ele>878</ele>
        <time>2018-04-27T18:52:54Z</time>
      </trkpt>
      <trkpt lat="44.86152" lon="3.09941">
        <ele>868</ele>
        <time>2018-04-27T18:53:54Z</time>
      </trkpt>
      <trkpt lat="44.86152" lon="3.09941">
        <ele>868</ele>
        <time>2018-04-27T18:54:54Z</time>
      </trkpt>
      <trkpt lat="44.86139" lon="3.09938">
        <ele>861</ele>
        <time>2018-04-27T18:55:54Z</time>
      </trkpt>
      <trkpt lat="44.86135" lon="3.09931">
        <ele>862</ele>
        <time>2018-04-27T18:56:54Z</time>
      </trkpt>
      <trkpt lat="44.86127" lon="3.09931">
        <ele>857</ele>
        <time>2018-04-27T18:57:54Z</time>
      </trkpt>
      <trkpt lat="44.86125" lon="3.09939">
        <ele>853</ele>
        <time>2018-04-27T18:58:54Z</time>
      </trkpt>
      <trkpt lat="44.86118" lon="3.09926">
        <ele>854</ele>
        <time>2018-04-27T18:59:54Z</time>
      </trkpt>
      <trkpt lat="44.86117" lon="3.09904">
        <ele>864</ele>
        <time>2018-04-27T19:00:54Z</time>
      </trkpt>
      <trkpt lat="44.86106" lon="3.09893">
        <ele>863</ele>
        <time>2018-04-27T19:01:54Z</time>
      </trkpt>
      <trkpt lat="44.86106" lon="3.09884">
        <ele>868</ele>
        <time>2018-04-27T19:02:54Z</time>
      </trkpt>
      <trkpt lat="44.86109" lon="3.09879">
        <ele>872</ele>
        <time>2018-04-27T19:03:54Z</time>
      </trkpt>
      <trkpt lat="44.86108" lon="3.09871">
        <ele>876</ele>
        <time>2018-04-27T19:04:54Z</time>
      </trkpt>
      <trkpt lat="44.86105" lon="3.09865">
        <ele>877</ele>
        <time>2018-04-27T19:05:54Z</time>
      </trkpt>
      <trkpt lat="44.86094" lon="3.09855">
        <ele>875</ele>
        <time>2018-04-27T19:06:54Z</time>
      </trkpt>
      <trkpt lat="44.86084" lon="3.09813">
        <ele>887</ele>
        <time>2018-04-27T19:07:54Z</time>
      </trkpt>
      <trkpt lat="44.86079" lon="3.09805">
        <ele>887</ele>
        <time>2018-04-27T19:08:54Z</time>
      </trkpt>
      <trkpt lat="44.86063" lon="3.09797">
        <ele>879</ele>
        <time>2018-04-27T19:09:54Z</time>
      </trkpt>
      <trkpt lat="44.86052" lon="3.09787">
        <ele>877</ele>
        <time>2018-04-27T19:10:54Z</time>
      </trkpt>
      <trkpt lat="44.86054" lon="3.09778">
        <ele>882</ele>
        <time>2018-04-27T19:11:54Z</time>
      </trkpt>
      <trkpt lat="44.86053" lon="3.0977">
        <ele>884</ele>
        <time>2018-04-27T19:12:54Z</time>
      </trkpt>
      <trkpt lat="44.86042" lon="3.09749">
        <ele>888</ele>
        <time>2018-04-27T19:13:54Z</time>
      </trkpt>
      <trkpt lat="44.86032" lon="3.09722">
        <ele>893</ele>
        <time>2018-04-27T19:14:54Z</time>
      </trkpt>
      <trkpt lat="44.86025" lon="3.09722">
        <ele>890</ele>
        <time>2018-04-27T19:15:54Z</time>
      </trkpt>
      <trkpt lat="44.8602" lon="3.09717">
        <ele>889</ele>
        <time>2018-04-27T19:16:54Z</time>
      </trkpt>
      <trkpt lat="44.86023" lon="3.09713">
        <ele>892</ele>
        <time>2018-04-27T19:17:54Z</time>
      </trkpt>
      <trkpt lat="44.86019" lon="3.09701">
        <ele>895</ele>
        <time>2018-04-27T19:18:54Z</time>
      </trkpt>
      <trkpt lat="44.86016" lon="3.09697">
        <ele>895</ele>
        <time>2018-04-27T19:19:54Z</time>
      </trkpt>
      <trkpt lat="44.86014" lon="3.09697">
        <ele>894</ele>
        <time>2018-04-27T19:20:54Z</time>
      </trkpt>
      <trkpt lat="44.86" lon="3.09689">
        <ele>889</ele>
        <time>2018-04-27T19:21:54Z</time>
      </trkpt>
      <trkpt lat="44.85972" lon="3.09686">
        <ele>873</ele>
        <time>2018-04-27T19:22:54Z</time>
      </trkpt>
      <trkpt lat="44.85971" lon="3.0968">
        <ele>874</ele>
        <time>2018-04-27T19:23:54Z</time>
      </trkpt>
      <trkpt lat="44.85971" lon="3.0968">
        <ele>874</ele>
        <time>2018-04-27T19:24:54Z</time>
      </trkpt>
      <trkpt lat="44.85964" lon="3.09658">
        <ele>877</ele>
        <time>2018-04-27T19:25:54Z</time>
      </trkpt>
      <trkpt lat="44.8596" lon="3.09614">
        <ele>888</ele>
        <time>2018-04-27T19:26:54Z</time>
      </trkpt>
      <trkpt lat="44.85951" lon="3.09597">
        <ele>889</ele>
        <time>2018-04-27T19:27:54Z</time>
      </trkpt>
      <trkpt lat="44.85949" lon="3.09587">
        <ele>891</ele>
        <time>2018-04-27T19:28:54Z</time>
      </trkpt>
      <trkpt lat="44.8595" lon="3.09579">
        <ele>894</ele>
        <time>2018-04-27T19:29:54Z</time>
      </trkpt>
      <trkpt lat="44.85957" lon="3.0957">
        <ele>901</ele>
        <time>2018-04-27T19:30:54Z</time>
      </trkpt>
      <trkpt lat="44.85963" lon="3.09565">
        <ele>906</ele>
        <time>2018-04-27T19:31:54Z</time>
      </trkpt>
      <trkpt lat="44.85965" lon="3.09559">
        <ele>909</ele>
        <time>2018-04-27T19:32:54Z</time>
      </trkpt>
      <trkpt lat="44.85963" lon="3.09551">
        <ele>910</ele>
        <time>2018-04-27T19:33:54Z</time>
      </trkpt>
      <trkpt lat="44.85947" lon="3.09523">
        <ele>911</ele>
        <time>2018-04-27T19:34:54Z</time>
      </trkpt>
      <trkpt lat="44.85934" lon="3.09513">
        <ele>908</ele>
        <time>2018-04-27T19:35:54Z</time>
      </trkpt>
      <trkpt lat="44.85925" lon="3.09514">
        <ele>903</ele>
        <time>2018-04-27T19:36:54Z</time>
      </trkpt>
      <trkpt lat="44.85913" lon="3.09503">
        <ele>903</ele>
        <time>2018-04-27T19:37:54Z</time>
      </trkpt>
      <trkpt lat="44.85891" lon="3.09499">
        <ele>900</ele>
        <time>2018-04-27T19:38:54Z</time>
      </trkpt>
      <trkpt lat="44.85878" lon="3.095">
        <ele>897</ele>
        <time>2018-04-27T19:39:54Z</time>
      </trkpt>
      <trkpt lat="44.85839" lon="3.0948">
        <ele>898</ele>
        <time>2018-04-27T19:40:54Z</time>
      </trkpt>
      <trkpt lat="44.85839" lon="3.09485">
        <ele>896</ele>
        <time>2018-04-27T19:41:54Z</time>
      </trkpt>
      <trkpt lat="44.85823" lon="3.09485">
        <ele>890</ele>
        <time>2018-04-27T19:42:54Z</time>
      </trkpt>
      <trkpt lat="44.85814" lon="3.0949">
        <ele>884</ele>
        <time>2018-04-27T19:43:54Z</time>
      </trkpt>
      <trkpt lat="44.85812" lon="3.09493">
        <ele>881</ele>
        <time>2018-04-27T19:44:54Z</time>
      </trkpt>
      <trkpt lat="44.85805" lon="3.09493">
        <ele>878</ele>
        <time>2018-04-27T19:45:54Z</time>
      </trkpt>
      <trkpt lat="44.85786" lon="3.09499">
        <ele>866</ele>
        <time>2018-04-27T19:46:54Z</time>
      </trkpt>
      <trkpt lat="44.85784" lon="3.09494">
        <ele>868</ele>
        <time>2018-04-27T19:47:54Z</time>
      </trkpt>
      <trkpt lat="44.85785" lon="3.0949">
        <ele>870</ele>
        <time>2018-04-27T19:48:54Z</time>
      </trkpt>
      <trkpt lat="44.85785" lon="3.0949">
        <ele>870</ele>
        <time>2018-04-27T19:49:54Z</time>
      </trkpt>
      <trkpt lat="44.85788" lon="3.09481">
        <ele>876</ele>
        <time>2018-04-27T19:50:54Z</time>
      </trkpt>
      <trkpt lat="44.85788" lon="3.09476">
        <ele>879</ele>
        <time>2018-04-27T19:51:54Z</time>
      </trkpt>
      <trkpt lat="44.85782" lon="3.09462">
        <ele>883</ele>
        <time>2018-04-27T19:52:54Z</time>
      </trkpt>
      <trkpt lat="44.85778" lon="3.09441">
        <ele>893</ele>
        <time>2018-04-27T19:53:54Z</time>
      </trkpt>
      <trkpt lat="44.85764" lon="3.09416">
        <ele>901</ele>
        <time>2018-04-27T19:54:54Z</time>
      </trkpt>
      <trkpt lat="44.85753" lon="3.09382">
        <ele>910</ele>
        <time>2018-04-27T19:55:54Z</time>
      </trkpt>
      <trkpt lat="44.85741" lon="3.09374">
        <ele>910</ele>
        <time>2018-04-27T19:56:54Z</time>
      </trkpt>
      <trkpt lat="44.85737" lon="3.09378">
        <ele>907</ele>
        <time>2018-04-27T19:57:54Z</time>
      </trkpt>
      <trkpt lat="44.85734" lon="3.09376">
        <ele>907</ele>
        <time>2018-04-27T19:58:54Z</time>
      </trkpt>
      <trkpt lat="44.85733" lon="3.09368">
        <ele>910</ele>
        <time>2018-04-27T19:59:54Z</time>
      </trkpt>
      <trkpt lat="44.85726" lon="3.09357">
        <ele>914</ele>
        <time>2018-04-27T20:00:54Z</time>
      </trkpt>
      <trkpt lat="44.85719" lon="3.09342">
        <ele>919</ele>
        <time>2018-04-27T20:01:54Z</time>
      </trkpt>
      <trkpt lat="44.85714" lon="3.09339">
        <ele>920</ele>
        <time>2018-04-27T20:02:54Z</time>
      </trkpt>
      <trkpt lat="44.85706" lon="3.09344">
        <ele>916</ele>
        <time>2018-04-27T20:03:54Z</time>
      </trkpt>
      <trkpt lat="44.85698" lon="3.09345">
        <ele>914</ele>
        <time>2018-04-27T20:04:54Z</time>
      </trkpt>
      <trkpt lat="44.85692" lon="3.09349">
        <ele>910</ele>
        <time>2018-04-27T20:05:54Z</time>
      </trkpt>
      <trkpt lat="44.85682" lon="3.09337">
        <ele>915</ele>
        <time>2018-04-27T20:06:54Z</time>
      </trkpt>
      <trkpt lat="44.8568" lon="3.09336">
        <ele>916</ele>
        <time>2018-04-27T20:07:54Z</time>
      </trkpt>
      <trkpt lat="44.85673" lon="3.09339">
        <ele>913</ele>
        <time>2018-04-27T20:08:54Z</time>
      </trkpt>
      <trkpt lat="44.85667" lon="3.09351">
        <ele>904</ele>
        <time>2018-04-27T20:09:54Z</time>
      </trkpt>
      <trkpt lat="44.85662" lon="3.09358">
        <ele>899</ele>
        <time>2018-04-27T20:10:54Z</time>
      </trkpt>
      <trkpt lat="44.85658" lon="3.0936">
        <ele>896</ele>
        <time>2018-04-27T20:11:54Z</time>
      </trkpt>
      <trkpt lat="44.85656" lon="3.09355">
        <ele>899</ele>
        <time>2018-04-27T20:12:54Z</time>
      </trkpt>
      <trkpt lat="44.85649" lon="3.09351">
        <ele>900</ele>
        <time>2018-04-27T20:13:54Z</time>
      </trkpt>
      <trkpt lat="44.85649" lon="3.09351">
        <ele>900</ele>
        <time>2018-04-27T20:14:54Z</time>
      </trkpt>
      <trkpt lat="44.85633" lon="3.09353">
        <ele>894</ele>
        <time>2018-04-27T20:15:54Z</time>
      </trkpt>
      <trkpt lat="44.85605" lon="3.09338">
        <ele>896</ele>
        <time>2018-04-27T20:16:54Z</time>
      </trkpt>
      <trkpt lat="44.85598" lon="3.09327">
        <ele>899</ele>
        <time>2018-04-27T20:17:54Z</time>
      </trkpt>
      <trkpt lat="44.8559" lon="3.09323">
        <ele>899</ele>
        <time>2018-04-27T20:18:54Z</time>
      </trkpt>
      <trkpt lat="44.85578" lon="3.09311">
        <ele>900</ele>
        <time>2018-04-27T20:19:54Z</time>
      </trkpt>
      <trkpt lat="44.85572" lon="3.09308">
        <ele>899</ele>
        <time>2018-04-27T20:20:54Z</time>
      </trkpt>
      <trkpt lat="44.85569" lon="3.09303">
        <ele>901</ele>
        <time>2018-04-27T20:21:54Z</time>
      </trkpt>
      <trkpt lat="44.85561" lon="3.09267">
        <ele>914</ele>
        <time>2018-04-27T20:22:54Z</time>
      </trkpt>
      <trkpt lat="44.85557" lon="3.09259">
        <ele>916</ele>
        <time>2018-04-27T20:23:54Z</time>
      </trkpt>
      <trkpt lat="44.85555" lon="3.09258">
        <ele>916</ele>
        <time>2018-04-27T20:24:54Z</time>
      </trkpt>
      <trkpt lat="44.85548" lon="3.09265">
        <ele>912</ele>
        <time>2018-04-27T20:25:54Z</time>
      </trkpt>
      <trkpt lat="44.8555" lon="3.0927">
        <ele>910</ele>
        <time>2018-04-27T20:26:54Z</time>
      </trkpt>
      <trkpt lat="44.85543" lon="3.09301">
        <ele>894</ele>
        <time>2018-04-27T20:27:54Z</time>
      </trkpt>
      <trkpt lat="44.85534" lon="3.09313">
        <ele>886</ele>
        <time>2018-04-27T20:28:54Z</time>
      </trkpt>
      <trkpt lat="44.85529" lon="3.09309">
        <ele>886</ele>
        <time>2018-04-27T20:29:54Z</time>
      </trkpt>
      <trkpt lat="44.85524" lon="3.09299">
        <ele>890</ele>
        <time>2018-04-27T20:30:54Z</time>
      </trkpt>
      <trkpt lat="44.85523" lon="3.0929">
        <ele>894</ele>
        <time>2018-04-27T20:31:54Z</time>
      </trkpt>
      <trkpt lat="44.85518" lon="3.09277">
        <ele>899</ele>
        <time>2018-04-27T20:32:54Z</time>
      </trkpt>
      <trkpt lat="44.85506" lon="3.09254">
        <ele>909</ele>
        <time>2018-04-27T20:33:54Z</time>
      </trkpt>
      <trkpt lat="44.85501" lon="3.09245">
        <ele>912</ele>
        <time>2018-04-27T20:34:54Z</time>
      </trkpt>
      <trkpt lat="44.85494" lon="3.09246">
        <ele>912</ele>
        <time>2018-04-27T20:35:54Z</time>
      </trkpt>
      <trkpt lat="44.85492" lon="3.09251">
        <ele>910</ele>
        <time>2018-04-27T20:36:54Z</time>
      </trkpt>
      <trkpt lat="44.85483" lon="3.09258">
        <ele>906</ele>
        <time>2018-04-27T20:37:54Z</time>
      </trkpt>
      <trkpt lat="44.85473" lon="3.09258">
        <ele>906</ele>
        <time>2018-04-27T20:38:54Z</time>
      </trkpt>
      <trkpt lat="44.85461" lon="3.0926">
        <ele>905</ele>
        <time>2018-04-27T20:39:54Z</time>
      </trkpt>
      <trkpt lat="44.85436" lon="3.09269">
        <ele>902</ele>
        <time>2018-04-27T20:40:54Z</time>
      </trkpt>
      <trkpt lat="44.85436" lon="3.09269">
        <ele>902</ele>
        <time>2018-04-27T20:41:54Z</time>
      </trkpt>
      <trkpt lat="44.85425" lon="3.09273">
        <ele>900</ele>
        <time>2018-04-27T20:42:54Z</time>
      </trkpt>
      <trkpt lat="44.85419" lon="3.0927">
        <ele>902</ele>
        <time>2018-04-27T20:43:54Z</time>
      </trkpt>
      <trkpt lat="44.85407" lon="3.09274">
        <ele>903</ele>
        <time>2018-04-27T20:44:54Z</time>
      </trkpt>
      <trkpt lat="44.854" lon="3.09272">
        <ele>906</ele>
        <time>2018-04-27T20:45:54Z</time>
      </trkpt>
      <trkpt lat="44.85393" lon="3.09279">
        <ele>905</ele>
        <time>2018-04-27T20:46:54Z</time>
      </trkpt>
      <trkpt lat="44.85388" lon="3.0929">
        <ele>902</ele>
        <time>2018-04-27T20:47:54Z</time>
      </trkpt>
      <trkpt lat="44.85385" lon="3.09289">
        <ele>903</ele>
        <time>2018-04-27T20:48:54Z</time>
      </trkpt>
      <trkpt lat="44.85383" lon="3.09277">
        <ele>909</ele>
        <time>2018-04-27T20:49:54Z</time>
      </trkpt>
      <trkpt lat="44.85376" lon="3.09264">
        <ele>916</ele>
        <time>2018-04-27T20:50:54Z</time>
      </trkpt>
      <trkpt lat="44.85371" lon="3.09266">
        <ele>916</ele>
        <time>2018-04-27T20:51:54Z</time>
      </trkpt>
      <trkpt lat="44.85367" lon="3.09265">
        <ele>918</ele>
        <time>2018-04-27T20:52:54Z</time>
      </trkpt>
      <trkpt lat="44.85358" lon="3.09281">
        <ele>915</ele>
        <time>2018-04-27T20:53:54Z</time>
      </trkpt>
      <trkpt lat="44.85359" lon="3.0929">
        <ele>911</ele>
        <time>2018-04-27T20:54:54Z</time>
      </trkpt>
      <trkpt lat="44.85355" lon="3.09301">
        <ele>909</ele>
        <time>2018-04-27T20:55:54Z</time>
      </trkpt>
      <trkpt lat="44.85351" lon="3.093">
        <ele>911</ele>
        <time>2018-04-27T20:56:54Z</time>
      </trkpt>
      <trkpt lat="44.85342" lon="3.09307">
        <ele>912</ele>
        <time>2018-04-27T20:57:54Z</time>
      </trkpt>
      <trkpt lat="44.85332" lon="3.09323">
        <ele>910</ele>
        <time>2018-04-27T20:58:54Z</time>
      </trkpt>
      <trkpt lat="44.85324" lon="3.09351">
        <ele>905</ele>
        <time>2018-04-27T20:59:54Z</time>
      </trkpt>
      <trkpt lat="44.85312" lon="3.09361">
        <ele>906</ele>
        <time>2018-04-27T21:00:54Z</time>
      </trkpt>
      <trkpt lat="44.85301" lon="3.09373">
        <ele>906</ele>
        <time>2018-04-27T21:01:54Z</time>
      </trkpt>
      <trkpt lat="44.85292" lon="3.09364">
        <ele>912</ele>
        <time>2018-04-27T21:02:54Z</time>
      </trkpt>
      <trkpt lat="44.85281" lon="3.09357">
        <ele>918</ele>
        <time>2018-04-27T21:03:54Z</time>
      </trkpt>
      <trkpt lat="44.85272" lon="3.0936">
        <ele>921</ele>
        <time>2018-04-27T21:04:54Z</time>
      </trkpt>
      <trkpt lat="44.85262" lon="3.09377">
        <ele>919</ele>
        <time>2018-04-27T21:05:54Z</time>
      </trkpt>
      <trkpt lat="44.85258" lon="3.09375">
        <ele>921</ele>
        <time>2018-04-27T21:06:54Z</time>
      </trkpt>
      <trkpt lat="44.85257" lon="3.09406">
        <ele>912</ele>
        <time>2018-04-27T21:07:54Z</time>
      </trkpt>
      <trkpt lat="44.85249" lon="3.0942">
        <ele>910</ele>
        <time>2018-04-27T21:08:54Z</time>
      </trkpt>
      <trkpt lat="44.85239" lon="3.09427">
        <ele>906</ele>
        <time>2018-04-27T21:09:54Z</time>
      </trkpt>
      <trkpt lat="44.85234" lon="3.09438">
        <ele>902</ele>
        <time>2018-04-27T21:10:54Z</time>
      </trkpt>
      <trkpt lat="44.85233" lon="3.09453">
        <ele>897</ele>
        <time>2018-04-27T21:11:54Z</time>
      </trkpt>
      <trkpt lat="44.85221" lon="3.09464">
        <ele>892</ele>
        <time>2018-04-27T21:12:54Z</time>
      </trkpt>
      <trkpt lat="44.85215" lon="3.09464">
        <ele>891</ele>
        <time>2018-04-27T21:13:54Z</time>
      </trkpt>
      <trkpt lat="44.85215" lon="3.09464">
        <ele>891</ele>
        <time>2018-04-27T21:14:54Z</time>
      </trkpt>
      <trkpt lat="44.85206" lon="3.0947">
        <ele>889</ele>
        <time>2018-04-27T21:15:54Z</time>
      </trkpt>
      <trkpt lat="44.85201" lon="3.09466">
        <ele>890</ele>
        <time>2018-04-27T21:16:54Z</time>
      </trkpt>
      <trkpt lat="44.852" lon="3.0947">
        <ele>888</ele>
        <time>2018-04-27T21:17:54Z</time>
      </trkpt>
      <trkpt lat="44.85201" lon="3.09473">
        <ele>887</ele>
        <time>2018-04-27T21:18:54Z</time>
      </trkpt>
      <trkpt lat="44.85194" lon="3.09481">
        <ele>884</ele>
        <time>2018-04-27T21:19:54Z</time>
      </trkpt>
      <trkpt lat="44.8519" lon="3.09489">
        <ele>881</ele>
        <time>2018-04-27T21:20:54Z</time>
      </trkpt>
      <trkpt lat="44.85177" lon="3.09495">
        <ele>878</ele>
        <time>2018-04-27T21:21:54Z</time>
      </trkpt>
      <trkpt lat="44.8516" lon="3.09443">
        <ele>894</ele>
        <time>2018-04-27T21:22:54Z</time>
      </trkpt>
      <trkpt lat="44.85143" lon="3.09418">
        <ele>900</ele>
        <time>2018-04-27T21:23:54Z</time>
      </trkpt>
      <trkpt lat="44.85145" lon="3.09412">
        <ele>903</ele>
        <time>2018-04-27T21:24:54Z</time>
      </trkpt>
      <trkpt lat="44.8515" lon="3.09409">
        <ele>905</ele>
        <time>2018-04-27T21:25:54Z</time>
      </trkpt>
      <trkpt lat="44.85145" lon="3.09403">
        <ele>906</ele>
        <time>2018-04-27T21:26:54Z</time>
      </trkpt>
      <trkpt lat="44.85137" lon="3.09381">
        <ele>914</ele>
        <time>2018-04-27T21:27:54Z</time>
      </trkpt>
      <trkpt lat="44.85132" lon="3.09361">
        <ele>922</ele>
        <time>2018-04-27T21:28:54Z</time>
      </trkpt>
      <trkpt lat="44.85119" lon="3.09343">
        <ele>929</ele>
        <time>2018-04-27T21:29:54Z</time>
      </trkpt>
      <trkpt lat="44.85092" lon="3.09351">
        <ele>922</ele>
        <time>2018-04-27T21:30:54Z</time>
      </trkpt>
      <trkpt lat="44.85058" lon="3.09367">
        <ele>914</ele>
        <time>2018-04-27T21:31:54Z</time>
      </trkpt>
      <trkpt lat="44.85048" lon="3.09369">
        <ele>914</ele>
        <time>2018-04-27T21:32:54Z</time>
      </trkpt>
      <trkpt lat="44.8503" lon="3.09375">
        <ele>912</ele>
        <time>2018-04-27T21:33:54Z</time>
      </trkpt>
      <trkpt lat="44.85002" lon="3.09396">
        <ele>906</ele>
        <time>2018-04-27T21:34:54Z</time>
      </trkpt>
      <trkpt lat="44.84998" lon="3.09396">
        <ele>906</ele>
        <time>2018-04-27T21:35:54Z</time>
      </trkpt>
      <trkpt lat="44.84998" lon="3.09396">
        <ele>906</ele>
        <time>2018-04-27T21:36:54Z</time>
      </trkpt>
      <trkpt lat="44.84991" lon="3.09394">
        <ele>908</ele>
        <time>2018-04-27T21:37:54Z</time>
      </trkpt>
      <trkpt lat="44.84989" lon="3.09389">
        <ele>910</ele>
        <time>2018-04-27T21:38:54Z</time>
      </trkpt>
      <trkpt lat="44.84981" lon="3.0938">
        <ele>913</ele>
        <time>2018-04-27T21:39:54Z</time>
      </trkpt>
      <trkpt lat="44.84978" lon="3.09369">
        <ele>916</ele>
        <time>2018-04-27T21:40:54Z</time>
      </trkpt>
      <trkpt lat="44.8497" lon="3.09354">
        <ele>920</ele>
        <time>2018-04-27T21:41:54Z</time>
      </trkpt>
      <trkpt lat="44.84964" lon="3.09336">
        <ele>924</ele>
        <time>2018-04-27T21:42:54Z</time>
      </trkpt>
      <trkpt lat="44.84963" lon="3.09317">
        <ele>926</ele>
        <time>2018-04-27T21:43:54Z</time>
      </trkpt>
      <trkpt lat="44.84955" lon="3.09303">
        <ele>927</ele>
        <time>2018-04-27T21:44:54Z</time>
      </trkpt>
      <trkpt lat="44.84935" lon="3.09283">
        <ele>926</ele>
        <time>2018-04-27T21:45:54Z</time>
      </trkpt>
      <trkpt lat="44.84919" lon="3.09276">
        <ele>924</ele>
        <time>2018-04-27T21:46:54Z</time>
      </trkpt>
      <trkpt lat="44.84915" lon="3.0927">
        <ele>924</ele>
        <time>2018-04-27T21:47:54Z</time>
      </trkpt>
      <trkpt lat="44.84919" lon="3.09263">
        <ele>925</ele>
        <time>2018-04-27T21:48:54Z</time>
      </trkpt>
      <trkpt lat="44.84919" lon="3.0926">
        <ele>925</ele>
        <time>2018-04-27T21:49:54Z</time>
      </trkpt>
      <trkpt lat="44.84919" lon="3.0926">
        <ele>925</ele>
        <time>2018-04-27T21:50:54Z</time>
      </trkpt>
      <trkpt lat="44.84916" lon="3.09234">
        <ele>926</ele>
        <time>2018-04-27T21:51:54Z</time>
      </trkpt>
      <trkpt lat="44.84904" lon="3.09198">
        <ele>927</ele>
        <time>2018-04-27T21:52:54Z</time>
      </trkpt>
      <trkpt lat="44.84887" lon="3.09186">
        <ele>927</ele>
        <time>2018-04-27T21:53:54Z</time>
      </trkpt>
      <trkpt lat="44.84878" lon="3.09176">
        <ele>927</ele>
        <time>2018-04-27T21:54:54Z</time>
      </trkpt>
      <trkpt lat="44.84867" lon="3.09167">
        <ele>926</ele>
        <time>2018-04-27T21:55:54Z</time>
      </trkpt>
      <trkpt lat="44.84852" lon="3.09156">
        <ele>926</ele>
        <time>2018-04-27T21:56:54Z</time>
      </trkpt>
      <trkpt lat="44.84844" lon="3.09164">
        <ele>925</ele>
        <time>2018-04-27T21:57:54Z</time>
      </trkpt>
      <trkpt lat="44.84841" lon="3.09189">
        <ele>927</ele>
        <time>2018-04-27T21:58:54Z</time>
      </trkpt>
      <trkpt lat="44.84843" lon="3.09214">
        <ele>929</ele>
        <time>2018-04-27T21:59:54Z</time>
      </trkpt>
      <trkpt lat="44.84846" lon="3.09222">
        <ele>929</ele>
        <time>2018-04-27T22:00:54Z</time>
      </trkpt>
      <trkpt lat="44.84844" lon="3.09231">
        <ele>930</ele>
        <time>2018-04-27T22:01:54Z</time>
      </trkpt>
      <trkpt lat="44.84814" lon="3.09263">
        <ele>936</ele>
        <time>2018-04-27T22:02:54Z</time>
      </trkpt>
      <trkpt lat="44.84802" lon="3.09271">
        <ele>939</ele>
        <time>2018-04-27T22:03:54Z</time>
      </trkpt>
      <trkpt lat="44.84783" lon="3.09276">
        <ele>942</ele>
        <time>2018-04-27T22:04:54Z</time>
      </trkpt>
      <trkpt lat="44.84776" lon="3.09276">
        <ele>944</ele>
        <time>2018-04-27T22:05:54Z</time>
      </trkpt>
      <trkpt lat="44.84772" lon="3.0927">
        <ele>944</ele>
        <time>2018-04-27T22:06:54Z</time>
      </trkpt>
      <trkpt lat="44.8476" lon="3.09258">
        <ele>945</ele>
        <time>2018-04-27T22:07:54Z</time>
      </trkpt>
      <trkpt lat="44.8476" lon="3.09258">
        <ele>945</ele>
        <time>2018-04-27T22:08:54Z</time>
      </trkpt>
      <trkpt lat="44.84749" lon="3.09252">
        <ele>946</ele>
        <time>2018-04-27T22:09:54Z</time>
      </trkpt>
      <trkpt lat="44.84738" lon="3.09251">
        <ele>949</ele>
        <time>2018-04-27T22:10:54Z</time>
      </trkpt>
      <trkpt lat="44.84736" lon="3.09257">
        <ele>950</ele>
        <time>2018-04-27T22:11:54Z</time>
      </trkpt>
      <trkpt lat="44.84742" lon="3.09272">
        <ele>949</ele>
        <time>2018-04-27T22:12:54Z</time>
      </trkpt>
      <trkpt lat="44.84742" lon="3.0929">
        <ele>951</ele>
        <time>2018-04-27T22:13:54Z</time>
      </trkpt>
      <trkpt lat="44.84736" lon="3.09303">
        <ele>953</ele>
        <time>2018-04-27T22:14:54Z</time>
      </trkpt>
      <trkpt lat="44.84726" lon="3.09312">
        <ele>955</ele>
        <time>2018-04-27T22:15:54Z</time>
      </trkpt>
      <trkpt lat="44.84718" lon="3.09312">
        <ele>956</ele>
        <time>2018-04-27T22:16:54Z</time>
      </trkpt>
      <trkpt lat="44.84713" lon="3.09309">
        <ele>957</ele>
        <time>2018-04-27T22:17:54Z</time>
      </trkpt>
      <trkpt lat="44.84707" lon="3.09307">
        <ele>958</ele>
        <time>2018-04-27T22:18:54Z</time>
      </trkpt>
      <trkpt lat="44.84704" lon="3.09301">
        <ele>959</ele>
        <time>2018-04-27T22:19:54Z</time>
      </trkpt>
      <trkpt lat="44.84701" lon="3.09273">
        <ele>959</ele>
        <time>2018-04-27T22:20:54Z</time>
      </trkpt>
      <trkpt lat="44.84701" lon="3.09273">
        <ele>959</ele>
        <time>2018-04-27T22:21:54Z</time>
      </trkpt>
      <trkpt lat="44.84698" lon="3.09256">
        <ele>960</ele>
        <time>2018-04-27T22:22:54Z</time>
      </trkpt>
      <trkpt lat="44.84689" lon="3.09227">
        <ele>961</ele>
        <time>2018-04-27T22:23:54Z</time>
      </trkpt>
      <trkpt lat="44.84675" lon="3.09202">
        <ele>963</ele>
        <time>2018-04-27T22:24:54Z</time>
      </trkpt>
      <trkpt lat="44.84672" lon="3.09192">
        <ele>963</ele>
        <time>2018-04-27T22:25:54Z</time>
      </trkpt>
      <trkpt lat="44.84662" lon="3.09185">
        <ele>966</ele>
        <time>2018-04-27T22:26:54Z</time>
      </trkpt>
      <trkpt lat="44.84662" lon="3.09181">
        <ele>965</ele>
        <time>2018-04-27T22:27:54Z</time>
      </trkpt>
      <trkpt lat="44.84662" lon="3.09181">
        <ele>965</ele>
        <time>2018-04-27T22:28:54Z</time>
      </trkpt>
      <trkpt lat="44.84662" lon="3.09185">
        <ele>966</ele>
        <time>2018-04-27T22:29:54Z</time>
      </trkpt>
      <trkpt lat="44.84658" lon="3.09191">
        <ele>967</ele>
        <time>2018-04-27T22:30:54Z</time>
      </trkpt>
      <trkpt lat="44.84658" lon="3.09225">
        <ele>969</ele>
        <time>2018-04-27T22:31:54Z</time>
      </trkpt>
      <trkpt lat="44.84652" lon="3.09252">
        <ele>972</ele>
        <time>2018-04-27T22:32:54Z</time>
      </trkpt>
      <trkpt lat="44.84637" lon="3.09299">
        <ele>973</ele>
        <time>2018-04-27T22:33:54Z</time>
      </trkpt>
      <trkpt lat="44.84621" lon="3.09329">
        <ele>976</ele>
        <time>2018-04-27T22:34:54Z</time>
      </trkpt>
      <trkpt lat="44.84605" lon="3.09347">
        <ele>977</ele>
        <time>2018-04-27T22:35:54Z</time>
      </trkpt>
      <trkpt lat="44.84597" lon="3.09353">
        <ele>978</ele>
        <time>2018-04-27T22:36:54Z</time>
      </trkpt>
      <trkpt lat="44.84575" lon="3.09361">
        <ele>982</ele>
        <time>2018-04-27T22:37:54Z</time>
      </trkpt>
      <trkpt lat="44.84551" lon="3.09377">
        <ele>984</ele>
        <time>2018-04-27T22:38:54Z</time>
      </trkpt>
      <trkpt lat="44.84534" lon="3.09395">
        <ele>984</ele>
        <time>2018-04-27T22:39:54Z</time>
      </trkpt>
      <trkpt lat="44.84492" lon="3.09457">
        <ele>982</ele>
        <time>2018-04-27T22:40:54Z</time>
      </trkpt>
      <trkpt lat="44.84477" lon="3.09473">
        <ele>982</ele>
        <time>2018-04-27T22:41:54Z</time>
      </trkpt>
      <trkpt lat="44.8447" lon="3.09475">
        <ele>983</ele>
        <time>2018-04-27T22:42:54Z</time>
      </trkpt>
      <trkpt lat="44.8447" lon="3.09475">
        <ele>983</ele>
        <time>2018-04-27T22:43:54Z</time>
      </trkpt>
      <trkpt lat="44.84468" lon="3.0947">
        <ele>985</ele>
        <time>2018-04-27T22:44:54Z</time>
      </trkpt>
      <trkpt lat="44.8447" lon="3.09442">
        <ele>989</ele>
        <time>2018-04-27T22:45:54Z</time>
      </trkpt>
      <trkpt lat="44.8448" lon="3.09426">
        <ele>989</ele>
        <time>2018-04-27T22:46:54Z</time>
      </trkpt>
      <trkpt lat="44.84495" lon="3.09378">
        <ele>996</ele>
        <time>2018-04-27T22:47:54Z</time>
      </trkpt>
      <trkpt lat="44.84533" lon="3.093">
        <ele>1000</ele>
        <time>2018-04-27T22:48:54Z</time>
      </trkpt>
      <trkpt lat="44.84544" lon="3.09267">
        <ele>1001</ele>
        <time>2018-04-27T22:49:54Z</time>
      </trkpt>
      <trkpt lat="44.84545" lon="3.09236">
        <ele>1002</ele>
        <time>2018-04-27T22:50:54Z</time>
      </trkpt>
      <trkpt lat="44.84544" lon="3.09211">
        <ele>1003</ele>
        <time>2018-04-27T22:51:54Z</time>
      </trkpt>
      <trkpt lat="44.84531" lon="3.09114">
        <ele>1008</ele>
        <time>2018-04-27T22:52:54Z</time>
      </trkpt>
      <trkpt lat="44.84519" lon="3.09089">
        <ele>1011</ele>
        <time>2018-04-27T22:53:54Z</time>
      </trkpt>
      <trkpt lat="44.84487" lon="3.09035">
        <ele>1018</ele>
        <time>2018-04-27T22:54:54Z</time>
      </trkpt>
      <trkpt lat="44.84468" lon="3.08983">
        <ele>1020</ele>
        <time>2018-04-27T22:55:54Z</time>
      </trkpt>
      <trkpt lat="44.84467" lon="3.08963">
        <ele>1020</ele>
        <time>2018-04-27T22:56:54Z</time>
      </trkpt>
      <trkpt lat="44.84471" lon="3.08944">
        <ele>1019</ele>
        <time>2018-04-27T22:57:54Z</time>
      </trkpt>
      <trkpt lat="44.84487" lon="3.08904">
        <ele>1016</ele>
        <time>2018-04-27T22:58:54Z</time>
      </trkpt>
      <trkpt lat="44.84497" lon="3.08876">
        <ele>1015</ele>
        <time>2018-04-27T22:59:54Z</time>
      </trkpt>
      <trkpt lat="44.84499" lon="3.08861">
        <ele>1016</ele>
        <time>2018-04-27T23:00:54Z</time>
      </trkpt>
      <trkpt lat="44.84493" lon="3.08852">
        <ele>1017</ele>
        <time>2018-04-27T23:01:54Z</time>
      </trkpt>
      <trkpt lat="44.84468" lon="3.08832">
        <ele>1022</ele>
        <time>2018-04-27T23:02:54Z</time>
      </trkpt>
      <trkpt lat="44.84459" lon="3.08821">
        <ele>1023</ele>
        <time>2018-04-27T23:03:54Z</time>
      </trkpt>
      <trkpt lat="44.8445" lon="3.08801">
        <ele>1025</ele>
        <time>2018-04-27T23:04:54Z</time>
      </trkpt>
      <trkpt lat="44.84451" lon="3.08782">
        <ele>1025</ele>
        <time>2018-04-27T23:05:54Z</time>
      </trkpt>
      <trkpt lat="44.84478" lon="3.08712">
        <ele>1024</ele>
        <time>2018-04-27T23:06:54Z</time>
      </trkpt>
      <trkpt lat="44.84487" lon="3.08692">
        <ele>1024</ele>
        <time>2018-04-27T23:07:54Z</time>
      </trkpt>
      <trkpt lat="44.84489" lon="3.08684">
        <ele>1024</ele>
        <time>2018-04-27T23:08:54Z</time>
      </trkpt>
      <trkpt lat="44.84489" lon="3.08684">
        <ele>1024</ele>
        <time>2018-04-27T23:09:54Z</time>
      </trkpt>
      <trkpt lat="44.8449" lon="3.08676">
        <ele>1024</ele>
        <time>2018-04-27T23:10:54Z</time>
      </trkpt>
      <trkpt lat="44.84446" lon="3.08685">
        <ele>1030</ele>
        <time>2018-04-27T23:11:54Z</time>
      </trkpt>
      <trkpt lat="44.8444" lon="3.08692">
        <ele>1030</ele>
        <time>2018-04-27T23:12:54Z</time>
      </trkpt>
      <trkpt lat="44.8443" lon="3.0871">
        <ele>1031</ele>
        <time>2018-04-27T23:13:54Z</time>
      </trkpt>
      <trkpt lat="44.84411" lon="3.08734">
        <ele>1031</ele>
        <time>2018-04-27T23:14:54Z</time>
      </trkpt>
      <trkpt lat="44.84398" lon="3.08745">
        <ele>1031</ele>
        <time>2018-04-27T23:15:54Z</time>
      </trkpt>
      <trkpt lat="44.84364" lon="3.08759">
        <ele>1033</ele>
        <time>2018-04-27T23:16:54Z</time>
      </trkpt>
      <trkpt lat="44.84242" lon="3.08762">
        <ele>1029</ele>
        <time>2018-04-27T23:17:54Z</time>
      </trkpt>
      <trkpt lat="44.84242" lon="3.08762">
        <ele>1029</ele>
        <time>2018-04-27T23:18:54Z</time>
      </trkpt>
      <trkpt lat="44.84236" lon="3.08763">
        <ele>1028</ele>
        <time>2018-04-27T23:19:54Z</time>
      </trkpt>
      <trkpt lat="44.84228" lon="3.08768">
        <ele>1027</ele>
        <time>2018-04-27T23:20:54Z</time>
      </trkpt>
      <trkpt lat="44.84221" lon="3.08778">
        <ele>1027</ele>
        <time>2018-04-27T23:21:54Z</time>
      </trkpt>
      <trkpt lat="44.84211" lon="3.08785">
        <ele>1025</ele>
        <time>2018-04-27T23:22:54Z</time>
      </trkpt>
      <trkpt lat="44.84204" lon="3.08782">
        <ele>1024</ele>
        <time>2018-04-27T23:23:54Z</time>
      </trkpt>
      <trkpt lat="44.84183" lon="3.08749">
        <ele>1021</ele>
        <time>2018-04-27T23:24:54Z</time>
      </trkpt>
      <trkpt lat="44.84164" lon="3.08731">
        <ele>1020</ele>
        <time>2018-04-27T23:25:54Z</time>
      </trkpt>
      <trkpt lat="44.84148" lon="3.08727">
        <ele>1018</ele>
        <time>2018-04-27T23:26:54Z</time>
      </trkpt>
      <trkpt lat="44.84137" lon="3.08732">
        <ele>1016</ele>
        <time>2018-04-27T23:27:54Z</time>
      </trkpt>
      <trkpt lat="44.84124" lon="3.08741">
        <ele>1014</ele>
        <time>2018-04-27T23:28:54Z</time>
      </trkpt>
      <trkpt lat="44.84108" lon="3.08759">
        <ele>1011</ele>
        <time>2018-04-27T23:29:54Z</time>
      </trkpt>
      <trkpt lat="44.84094" lon="3.08771">
        <ele>1009</ele>
        <time>2018-04-27T23:30:54Z</time>
      </trkpt>
      <trkpt lat="44.84083" lon="3.08773">
        <ele>1008</ele>
        <time>2018-04-27T23:31:54Z</time>
      </trkpt>
      <trkpt lat="44.84016" lon="3.08763">
        <ele>999</ele>
        <time>2018-04-27T23:32:54Z</time>
      </trkpt>
      <trkpt lat="44.83977" lon="3.08762">
        <ele>995</ele>
        <time>2018-04-27T23:33:54Z</time>
      </trkpt>
      <trkpt lat="44.83964" lon="3.08768">
        <ele>994</ele>
        <time>2018-04-27T23:34:54Z</time>
      </trkpt>
      <trkpt lat="44.83954" lon="3.08769">
        <ele>994</ele>
        <time>2018-04-27T23:35:54Z</time>
      </trkpt>
      <trkpt lat="44.83943" lon="3.08764">
        <ele>993</ele>
        <time>2018-04-27T23:36:54Z</time>
      </trkpt>
      <trkpt lat="44.83944" lon="3.08761">
        <ele>993</ele>
        <time>2018-04-27T23:37:54Z</time>
      </trkpt>
      <trkpt lat="44.83944" lon="3.08761">
        <ele>993</ele>
        <time>2018-04-27T23:38:54Z</time>
      </trkpt>
      <trkpt lat="44.83928" lon="3.08786">
        <ele>992</ele>
        <time>2018-04-27T23:39:54Z</time>
      </trkpt>
      <trkpt lat="44.8392" lon="3.08803">
        <ele>991</ele>
        <time>2018-04-27T23:40:54Z</time>
      </trkpt>
      <trkpt lat="44.83916" lon="3.08822">
        <ele>990</ele>
        <time>2018-04-27T23:41:54Z</time>
      </trkpt>
      <trkpt lat="44.83911" lon="3.0887">
        <ele>989</ele>
        <time>2018-04-27T23:42:54Z</time>
      </trkpt>
      <trkpt lat="44.83906" lon="3.08891">
        <ele>988</ele>
        <time>2018-04-27T23:43:54Z</time>
      </trkpt>
      <trkpt lat="44.83887" lon="3.08933">
        <ele>984</ele>
        <time>2018-04-27T23:44:54Z</time>
      </trkpt>
      <trkpt lat="44.8388" lon="3.08952">
        <ele>981</ele>
        <time>2018-04-27T23:45:54Z</time>
      </trkpt>
      <trkpt lat="44.83879" lon="3.08973">
        <ele>979</ele>
        <time>2018-04-27T23:46:54Z</time>
      </trkpt>
      <trkpt lat="44.83883" lon="3.09034">
        <ele>976</ele>
        <time>2018-04-27T23:47:54Z</time>
      </trkpt>
      <trkpt lat="44.83883" lon="3.09034">
        <ele>976</ele>
        <time>2018-04-27T23:48:54Z</time>
      </trkpt>
      <trkpt lat="44.83884" lon="3.0904">
        <ele>976</ele>
        <time>2018-04-27T23:49:54Z</time>
      </trkpt>
      <trkpt lat="44.83866" lon="3.09015">
        <ele>974</ele>
        <time>2018-04-27T23:50:54Z</time>
      </trkpt>
      <trkpt lat="44.83863" lon="3.09002">
        <ele>974</ele>
        <time>2018-04-27T23:51:54Z</time>
      </trkpt>
      <trkpt lat="44.83862" lon="3.08971">
        <ele>977</ele>
        <time>2018-04-27T23:52:54Z</time>
      </trkpt>
      <trkpt lat="44.83866" lon="3.08926">
        <ele>981</ele>
        <time>2018-04-27T23:53:54Z</time>
      </trkpt>
      <trkpt lat="44.83865" lon="3.08909">
        <ele>982</ele>
        <time>2018-04-27T23:54:54Z</time>
      </trkpt>
      <trkpt lat="44.83859" lon="3.08903">
        <ele>982</ele>
        <time>2018-04-27T23:55:54Z</time>
      </trkpt>
      <trkpt lat="44.83859" lon="3.08903">
        <ele>982</ele>
        <time>2018-04-27T23:56:54Z</time>
      </trkpt>
      <trkpt lat="44.83852" lon="3.089">
        <ele>982</ele>
        <time>2018-04-27T23:57:54Z</time>
      </trkpt>
      <trkpt lat="44.83828" lon="3.08899">
        <ele>980</ele>
        <time>2018-04-27T23:58:54Z</time>
      </trkpt>
      <trkpt lat="44.83809" lon="3.08896">
        <ele>983</ele>
        <time>2018-04-27T23:59:54Z</time>
      </trkpt>
      <trkpt lat="44.83799" lon="3.08897">
        <ele>984</ele>
        <time>2018-04-28T00:00:54Z</time>
      </trkpt>
      <trkpt lat="44.83793" lon="3.089">
        <ele>984</ele>
        <time>2018-04-28T00:01:54Z</time>
      </trkpt>
      <trkpt lat="44.83781" lon="3.0892">
        <ele>982</ele>
        <time>2018-04-28T00:02:54Z</time>
      </trkpt>
      <trkpt lat="44.83772" lon="3.08945">
        <ele>980</ele>
        <time>2018-04-28T00:03:54Z</time>
      </trkpt>
      <trkpt lat="44.83745" lon="3.09002">
        <ele>975</ele>
        <time>2018-04-28T00:04:54Z</time>
      </trkpt>
      <trkpt lat="44.83735" lon="3.09011">
        <ele>974</ele>
        <time>2018-04-28T00:05:54Z</time>
      </trkpt>
      <trkpt lat="44.83717" lon="3.09016">
        <ele>972</ele>
        <time>2018-04-28T00:06:54Z</time>
      </trkpt>
      <trkpt lat="44.83701" lon="3.09018">
        <ele>971</ele>
        <time>2018-04-28T00:07:54Z</time>
      </trkpt>
      <trkpt lat="44.83695" lon="3.09015">
        <ele>971</ele>
        <time>2018-04-28T00:08:54Z</time>
      </trkpt>
      <trkpt lat="44.83695" lon="3.09015">
        <ele>971</ele>
        <time>2018-04-28T00:09:54Z</time>
      </trkpt>
      <trkpt lat="44.83681" lon="3.0901">
        <ele>971</ele>
        <time>2018-04-28T00:10:54Z</time>
      </trkpt>
      <trkpt lat="44.83671" lon="3.08999">
        <ele>972</ele>
        <time>2018-04-28T00:11:54Z</time>
      </trkpt>
      <trkpt lat="44.83666" lon="3.08993">
        <ele>973</ele>
        <time>2018-04-28T00:12:54Z</time>
      </trkpt>
      <trkpt lat="44.83653" lon="3.08965">
        <ele>974</ele>
        <time>2018-04-28T00:13:54Z</time>
      </trkpt>
      <trkpt lat="44.83633" lon="3.08951">
        <ele>975</ele>
        <time>2018-04-28T00:14:54Z</time>
      </trkpt>
      <trkpt lat="44.8362" lon="3.08948">
        <ele>974</ele>
        <time>2018-04-28T00:15:54Z</time>
      </trkpt>
      <trkpt lat="44.83603" lon="3.08951">
        <ele>973</ele>
        <time>2018-04-28T00:16:54Z</time>
      </trkpt>
      <trkpt lat="44.83563" lon="3.08971">
        <ele>968</ele>
        <time>2018-04-28T00:17:54Z</time>
      </trkpt>
      <trkpt lat="44.8354" lon="3.08976">
        <ele>967</ele>
        <time>2018-04-28T00:18:54Z</time>
      </trkpt>
      <trkpt lat="44.83497" lon="3.08993">
        <ele>962</ele>
        <time>2018-04-28T00:19:54Z</time>
      </trkpt>
      <trkpt lat="44.83482" lon="3.08997">
        <ele>959</ele>
        <time>2018-04-28T00:20:54Z</time>
      </trkpt>
      <trkpt lat="44.83461" lon="3.08989">
        <ele>956</ele>
        <time>2018-04-28T00:21:54Z</time>
      </trkpt>
      <trkpt lat="44.83447" lon="3.0898">
        <ele>955</ele>
        <time>2018-04-28T00:22:54Z</time>
      </trkpt>
      <trkpt lat="44.83447" lon="3.0898">
        <ele>955</ele>
        <time>2018-04-28T00:23:54Z</time>
      </trkpt>
      <trkpt lat="44.83431" lon="3.08964">
        <ele>955</ele>
        <time>2018-04-28T00:24:54Z</time>
      </trkpt>
      <trkpt lat="44.83416" lon="3.08953">
        <ele>953</ele>
        <time>2018-04-28T00:25:54Z</time>
      </trkpt>
      <trkpt lat="44.8336" lon="3.08889">
        <ele>952</ele>
        <time>2018-04-28T00:26:54Z</time>
      </trkpt>
      <trkpt lat="44.83346" lon="3.08859">
        <ele>955</ele>
        <time>2018-04-28T00:27:54Z</time>
      </trkpt>
      <trkpt lat="44.83339" lon="3.08838">
        <ele>957</ele>
        <time>2018-04-28T00:28:54Z</time>
      </trkpt>
      <trkpt lat="44.83338" lon="3.08818">
        <ele>960</ele>
        <time>2018-04-28T00:29:54Z</time>
      </trkpt>
      <trkpt lat="44.83334" lon="3.08809">
        <ele>960</ele>
        <time>2018-04-28T00:30:54Z</time>
      </trkpt>
      <trkpt lat="44.83334" lon="3.08809">
        <ele>960</ele>
        <time>2018-04-28T00:31:54Z</time>
      </trkpt>
      <trkpt lat="44.8333" lon="3.08806">
        <ele>961</ele>
        <time>2018-04-28T00:32:54Z</time>
      </trkpt>
      <trkpt lat="44.83325" lon="3.08807">
        <ele>961</ele>
        <time>2018-04-28T00:33:54Z</time>
      </trkpt>
      <trkpt lat="44.83297" lon="3.08833">
        <ele>961</ele>
        <time>2018-04-28T00:34:54Z</time>
      </trkpt>
      <trkpt lat="44.83281" lon="3.08853">
        <ele>958</ele>
        <time>2018-04-28T00:35:54Z</time>
      </trkpt>
      <trkpt lat="44.83271" lon="3.08873">
        <ele>955</ele>
        <time>2018-04-28T00:36:54Z</time>
      </trkpt>
      <trkpt lat="44.83259" lon="3.08887">
        <ele>954</ele>
        <time>2018-04-28T00:37:54Z</time>
      </trkpt>
      <trkpt lat="44.83242" lon="3.08899">
        <ele>953</ele>
        <time>2018-04-28T00:38:54Z</time>
      </trkpt>
      <trkpt lat="44.83222" lon="3.08906">
        <ele>954</ele>
        <time>2018-04-28T00:39:54Z</time>
      </trkpt>
      <trkpt lat="44.83198" lon="3.089">
        <ele>958</ele>
        <time>2018-04-28T00:40:54Z</time>
      </trkpt>
      <trkpt lat="44.83172" lon="3.0889">
        <ele>961</ele>
        <time>2018-04-28T00:41:54Z</time>
      </trkpt>
      <trkpt lat="44.83108" lon="3.08849">
        <ele>964</ele>
        <time>2018-04-28T00:42:54Z</time>
      </trkpt>
      <trkpt lat="44.83095" lon="3.08835">
        <ele>964</ele>
        <time>2018-04-28T00:43:54Z</time>
      </trkpt>
      <trkpt lat="44.83087" lon="3.08833">
        <ele>964</ele>
        <time>2018-04-28T00:44:54Z</time>
      </trkpt>
      <trkpt lat="44.83061" lon="3.08811">
        <ele>964</ele>
        <time>2018-04-28T00:45:54Z</time>
      </trkpt>
      <trkpt lat="44.83061" lon="3.08811">
        <ele>964</ele>
        <time>2018-04-28T00:46:54Z</time>
      </trkpt>
      <trkpt lat="44.8306" lon="3.0881">
        <ele>964</ele>
        <time>2018-04-28T00:47:54Z</time>
      </trkpt>
      <trkpt lat="44.83055" lon="3.08832">
        <ele>964</ele>
        <time>2018-04-28T00:48:54Z</time>
      </trkpt>
      <trkpt lat="44.83055" lon="3.08862">
        <ele>966</ele>
        <time>2018-04-28T00:49:54Z</time>
      </trkpt>
      <trkpt lat="44.83045" lon="3.08985">
        <ele>971</ele>
        <time>2018-04-28T00:50:54Z</time>
      </trkpt>
      <trkpt lat="44.83044" lon="3.09013">
        <ele>971</ele>
        <time>2018-04-28T00:51:54Z</time>
      </trkpt>
      <trkpt lat="44.83048" lon="3.09023">
        <ele>970</ele>
        <time>2018-04-28T00:52:54Z</time>
      </trkpt>
      <trkpt lat="44.83049" lon="3.09039">
        <ele>970</ele>
        <time>2018-04-28T00:53:54Z</time>
      </trkpt>
      <trkpt lat="44.83048" lon="3.09053">
        <ele>970</ele>
        <time>2018-04-28T00:54:54Z</time>
      </trkpt>
      <trkpt lat="44.83026" lon="3.09113">
        <ele>970</ele>
        <time>2018-04-28T00:55:54Z</time>
      </trkpt>
      <trkpt lat="44.83013" lon="3.09151">
        <ele>969</ele>
        <time>2018-04-28T00:56:54Z</time>
      </trkpt>
      <trkpt lat="44.83002" lon="3.09203">
        <ele>967</ele>
        <time>2018-04-28T00:57:54Z</time>
      </trkpt>
      <trkpt lat="44.82995" lon="3.09224">
        <ele>966</ele>
        <time>2018-04-28T00:58:54Z</time>
      </trkpt>
      <trkpt lat="44.82985" lon="3.09242">
        <ele>965</ele>
        <time>2018-04-28T00:59:54Z</time>
      </trkpt>
      <trkpt lat="44.82978" lon="3.0925">
        <ele>964</ele>
        <time>2018-04-28T01:00:54Z</time>
      </trkpt>
      <trkpt lat="44.82961" lon="3.0925">
        <ele>963</ele>
        <time>2018-04-28T01:01:54Z</time>
      </trkpt>
      <trkpt lat="44.82935" lon="3.09248">
        <ele>962</ele>
        <time>2018-04-28T01:02:54Z</time>
      </trkpt>
      <trkpt lat="44.82919" lon="3.09252">
        <ele>961</ele>
        <time>2018-04-28T01:03:54Z</time>
      </trkpt>
      <trkpt lat="44.82859" lon="3.09278">
        <ele>952</ele>
        <time>2018-04-28T01:04:54Z</time>
      </trkpt>
      <trkpt lat="44.8285" lon="3.09287">
        <ele>951</ele>
        <time>2018-04-28T01:05:54Z</time>
      </trkpt>
      <trkpt lat="44.82846" lon="3.09303">
        <ele>950</ele>
        <time>2018-04-28T01:06:54Z</time>
      </trkpt>
      <trkpt lat="44.82843" lon="3.0939">
        <ele>943</ele>
        <time>2018-04-28T01:07:54Z</time>
      </trkpt>
      <trkpt lat="44.82846" lon="3.09404">
        <ele>942</ele>
        <time>2018-04-28T01:08:54Z</time>
      </trkpt>
      <trkpt lat="44.82855" lon="3.09429">
        <ele>939</ele>
        <time>2018-04-28T01:09:54Z</time>
      </trkpt>
      <trkpt lat="44.82857" lon="3.09456">
        <ele>934</ele>
        <time>2018-04-28T01:10:54Z</time>
      </trkpt>
      <trkpt lat="44.82855" lon="3.09476">
        <ele>930</ele>
        <time>2018-04-28T01:11:54Z</time>
      </trkpt>
      <trkpt lat="44.82848" lon="3.09496">
        <ele>927</ele>
        <time>2018-04-28T01:12:54Z</time>
      </trkpt>
      <trkpt lat="44.82842" lon="3.09503">
        <ele>926</ele>
        <time>2018-04-28T01:13:54Z</time>
      </trkpt>
      <trkpt lat="44.82839" lon="3.09502">
        <ele>926</ele>
        <time>2018-04-28T01:14:54Z</time>
      </trkpt>
      <trkpt lat="44.82838" lon="3.09499">
        <ele>927</ele>
        <time>2018-04-28T01:15:54Z</time>
      </trkpt>
      <trkpt lat="44.82838" lon="3.09499">
        <ele>927</ele>
        <time>2018-04-28T01:16:54Z</time>
      </trkpt>
      <trkpt lat="44.82833" lon="3.09497">
        <ele>927</ele>
        <time>2018-04-28T01:17:54Z</time>
      </trkpt>
      <trkpt lat="44.8283" lon="3.09489">
        <ele>928</ele>
        <time>2018-04-28T01:18:54Z</time>
      </trkpt>
      <trkpt lat="44.82831" lon="3.09455">
        <ele>934</ele>
        <time>2018-04-28T01:19:54Z</time>
      </trkpt>
      <trkpt lat="44.82829" lon="3.09439">
        <ele>936</ele>
        <time>2018-04-28T01:20:54Z</time>
      </trkpt>
      <trkpt lat="44.82823" lon="3.09428">
        <ele>936</ele>
        <time>2018-04-28T01:21:54Z</time>
      </trkpt>
      <trkpt lat="44.828" lon="3.09396">
        <ele>933</ele>
        <time>2018-04-28T01:22:54Z</time>
      </trkpt>
      <trkpt lat="44.82797" lon="3.09386">
        <ele>932</ele>
        <time>2018-04-28T01:23:54Z</time>
      </trkpt>
      <trkpt lat="44.82801" lon="3.09372">
        <ele>934</ele>
        <time>2018-04-28T01:24:54Z</time>
      </trkpt>
      <trkpt lat="44.82789" lon="3.09335">
        <ele>932</ele>
        <time>2018-04-28T01:25:54Z</time>
      </trkpt>
      <trkpt lat="44.82778" lon="3.09313">
        <ele>930</ele>
        <time>2018-04-28T01:26:54Z</time>
      </trkpt>
      <trkpt lat="44.82773" lon="3.09302">
        <ele>929</ele>
        <time>2018-04-28T01:27:54Z</time>
      </trkpt>
      <trkpt lat="44.82771" lon="3.09294">
        <ele>929</ele>
        <time>2018-04-28T01:28:54Z</time>
      </trkpt>
      <trkpt lat="44.82771" lon="3.09282">
        <ele>930</ele>
        <time>2018-04-28T01:29:54Z</time>
      </trkpt>
      <trkpt lat="44.82769" lon="3.0927">
        <ele>930</ele>
        <time>2018-04-28T01:30:54Z</time>
      </trkpt>
      <trkpt lat="44.8275" lon="3.09242">
        <ele>927</ele>
        <time>2018-04-28T01:31:54Z</time>
      </trkpt>
      <trkpt lat="44.82749" lon="3.09232">
        <ele>929</ele>
        <time>2018-04-28T01:32:54Z</time>
      </trkpt>
      <trkpt lat="44.8275" lon="3.09217">
        <ele>931</ele>
        <time>2018-04-28T01:33:54Z</time>
      </trkpt>
      <trkpt lat="44.82749" lon="3.09211">
        <ele>932</ele>
        <time>2018-04-28T01:34:54Z</time>
      </trkpt>
      <trkpt lat="44.82743" lon="3.09204">
        <ele>932</ele>
        <time>2018-04-28T01:35:54Z</time>
      </trkpt>
      <trkpt lat="44.82734" lon="3.09182">
        <ele>934</ele>
        <time>2018-04-28T01:36:54Z</time>
      </trkpt>
      <trkpt lat="44.82713" lon="3.09151">
        <ele>932</ele>
        <time>2018-04-28T01:37:54Z</time>
      </trkpt>
      <trkpt lat="44.82714" lon="3.09129">
        <ele>934</ele>
        <time>2018-04-28T01:38:54Z</time>
      </trkpt>
      <trkpt lat="44.82728" lon="3.09101">
        <ele>940</ele>
        <time>2018-04-28T01:39:54Z</time>
      </trkpt>
      <trkpt lat="44.82733" lon="3.09084">
        <ele>943</ele>
        <time>2018-04-28T01:40:54Z</time>
      </trkpt>
      <trkpt lat="44.82733" lon="3.09065">
        <ele>944</ele>
        <time>2018-04-28T01:41:54Z</time>
      </trkpt>
      <trkpt lat="44.82728" lon="3.09033">
        <ele>944</ele>
        <time>2018-04-28T01:42:54Z</time>
      </trkpt>
      <trkpt lat="44.82722" lon="3.09019">
        <ele>943</ele>
        <time>2018-04-28T01:43:54Z</time>
      </trkpt>
      <trkpt lat="44.82716" lon="3.09011">
        <ele>941</ele>
        <time>2018-04-28T01:44:54Z</time>
      </trkpt>
      <trkpt lat="44.82704" lon="3.08977">
        <ele>938</ele>
        <time>2018-04-28T01:45:54Z</time>
      </trkpt>
      <trkpt lat="44.82701" lon="3.08952">
        <ele>936</ele>
        <time>2018-04-28T01:46:54Z</time>
      </trkpt>
      <trkpt lat="44.82701" lon="3.08952">
        <ele>936</ele>
        <time>2018-04-28T01:47:54Z</time>
      </trkpt>
      <trkpt lat="44.82697" lon="3.08934">
        <ele>934</ele>
        <time>2018-04-28T01:48:54Z</time>
      </trkpt>
      <trkpt lat="44.82696" lon="3.08914">
        <ele>933</ele>
        <time>2018-04-28T01:49:54Z</time>
      </trkpt>
      <trkpt lat="44.82699" lon="3.08893">
        <ele>933</ele>
        <time>2018-04-28T01:50:54Z</time>
      </trkpt>
      <trkpt lat="44.82715" lon="3.08819">
        <ele>934</ele>
        <time>2018-04-28T01:51:54Z</time>
      </trkpt>
      <trkpt lat="44.82723" lon="3.08798">
        <ele>935</ele>
        <time>2018-04-28T01:52:54Z</time>
      </trkpt>
      <trkpt lat="44.82729" lon="3.08787">
        <ele>935</ele>
        <time>2018-04-28T01:53:54Z</time>
      </trkpt>
      <trkpt lat="44.82734" lon="3.08763">
        <ele>935</ele>
        <time>2018-04-28T01:54:54Z</time>
      </trkpt>
      <trkpt lat="44.82733" lon="3.08738">
        <ele>934</ele>
        <time>2018-04-28T01:55:54Z</time>
      </trkpt>
      <trkpt lat="44.82724" lon="3.08715">
        <ele>931</ele>
        <time>2018-04-28T01:56:54Z</time>
      </trkpt>
      <trkpt lat="44.82729" lon="3.08715">
        <ele>932</ele>
        <time>2018-04-28T01:57:54Z</time>
      </trkpt>
      <trkpt lat="44.82729" lon="3.08715">
        <ele>932</ele>
        <time>2018-04-28T01:58:54Z</time>
      </trkpt>
      <trkpt lat="44.82714" lon="3.08716">
        <ele>930</ele>
        <time>2018-04-28T01:59:54Z</time>
      </trkpt>
      <trkpt lat="44.82703" lon="3.08709">
        <ele>929</ele>
        <time>2018-04-28T02:00:54Z</time>
      </trkpt>
      <trkpt lat="44.82696" lon="3.08702">
        <ele>928</ele>
        <time>2018-04-28T02:01:54Z</time>
      </trkpt>
      <trkpt lat="44.82674" lon="3.08727">
        <ele>926</ele>
        <time>2018-04-28T02:02:54Z</time>
      </trkpt>
      <trkpt lat="44.82663" lon="3.08728">
        <ele>925</ele>
        <time>2018-04-28T02:03:54Z</time>
      </trkpt>
      <trkpt lat="44.82659" lon="3.08721">
        <ele>925</ele>
        <time>2018-04-28T02:04:54Z</time>
      </trkpt>
      <trkpt lat="44.82659" lon="3.08721">
        <ele>925</ele>
        <time>2018-04-28T02:05:54Z</time>
      </trkpt>
      <trkpt lat="44.82642" lon="3.08675">
        <ele>925</ele>
        <time>2018-04-28T02:06:54Z</time>
      </trkpt>
      <trkpt lat="44.82638" lon="3.0865">
        <ele>924</ele>
        <time>2018-04-28T02:07:54Z</time>
      </trkpt>
      <trkpt lat="44.82635" lon="3.08645">
        <ele>924</ele>
        <time>2018-04-28T02:08:54Z</time>
      </trkpt>
      <trkpt lat="44.82631" lon="3.08644">
        <ele>923</ele>
        <time>2018-04-28T02:09:54Z</time>
      </trkpt>
      <trkpt lat="44.82631" lon="3.08644">
        <ele>923</ele>
        <time>2018-04-28T02:10:54Z</time>
      </trkpt>
      <trkpt lat="44.82594" lon="3.08639">
        <ele>921</ele>
        <time>2018-04-28T02:11:54Z</time>
      </trkpt>
      <trkpt lat="44.82561" lon="3.08619">
        <ele>927</ele>
        <time>2018-04-28T02:12:54Z</time>
      </trkpt>
      <trkpt lat="44.82561" lon="3.08619">
        <ele>927</ele>
        <time>2018-04-28T02:13:54Z</time>
      </trkpt>
      <trkpt lat="44.82559" lon="3.08618">
        <ele>928</ele>
        <time>2018-04-28T02:14:54Z</time>
      </trkpt>
      <trkpt lat="44.8256" lon="3.0861">
        <ele>928</ele>
        <time>2018-04-28T02:15:54Z</time>
      </trkpt>
      <trkpt lat="44.82576" lon="3.08561">
        <ele>924</ele>
        <time>2018-04-28T02:16:54Z</time>
      </trkpt>
      <trkpt lat="44.82579" lon="3.08548">
        <ele>923</ele>
        <time>2018-04-28T02:17:54Z</time>
      </trkpt>
      <trkpt lat="44.82582" lon="3.08523">
        <ele>923</ele>
        <time>2018-04-28T02:18:54Z</time>
      </trkpt>
      <trkpt lat="44.8258" lon="3.08503">
        <ele>924</ele>
        <time>2018-04-28T02:19:54Z</time>
      </trkpt>
    </trkseg>
  </trk>
</gpx>